<?xml version="1.0" encoding="UTF-8" standalone="no" ?>
<gpx xmlns="http://www.topografix.com/GPX/1/1" xmlns:xsi="http://www.w3.org/2001/XMLSchema-instance" xsi:schemaLocation="http://www.topografix.com/GPX/1/1 http://www.topografix.com/GPX/1/1/gpx.xsd" version="1.1" creator="VisuGPX - https://www.visugpx.com">
  <metadata>
    <name>Pointes de la Carmélite 2023</name>
    <desc><![CDATA[grp_trc:[displayed]]]></desc>
  </metadata>
  <trk>
    <name><![CDATA[Pointes de la Carmélite  2023]]></name>
    <cmt><![CDATA[09:07:26]]></cmt>
    <desc><![CDATA[comment ...]]></desc>
    <trkseg>
      <trkpt lat="45.97036" lon="6.52296">
        <ele>1727</ele>
        <time>2023-05-03T07:07:24Z</time>
      </trkpt>
      <trkpt lat="45.97036" lon="6.52296">
        <ele>1727</ele>
        <time>2023-05-03T07:07:25Z</time>
      </trkpt>
      <trkpt lat="45.97033" lon="6.52297">
        <ele>1724</ele>
        <time>2023-05-03T07:14:43Z</time>
      </trkpt>
      <trkpt lat="45.97032" lon="6.52305">
        <ele>1724</ele>
        <time>2023-05-03T07:14:50Z</time>
      </trkpt>
      <trkpt lat="45.97028" lon="6.52311">
        <ele>1726</ele>
        <time>2023-05-03T07:14:57Z</time>
      </trkpt>
      <trkpt lat="45.97019" lon="6.5232">
        <ele>1728</ele>
        <time>2023-05-03T07:15:08Z</time>
      </trkpt>
      <trkpt lat="45.97014" lon="6.52324">
        <ele>1728</ele>
        <time>2023-05-03T07:15:14Z</time>
      </trkpt>
      <trkpt lat="45.97011" lon="6.5233">
        <ele>1729</ele>
        <time>2023-05-03T07:15:20Z</time>
      </trkpt>
      <trkpt lat="45.97004" lon="6.52344">
        <ele>1729</ele>
        <time>2023-05-03T07:15:31Z</time>
      </trkpt>
      <trkpt lat="45.97002" lon="6.52351">
        <ele>1730</ele>
        <time>2023-05-03T07:15:37Z</time>
      </trkpt>
      <trkpt lat="45.97002" lon="6.52357">
        <ele>1730</ele>
        <time>2023-05-03T07:15:45Z</time>
      </trkpt>
      <trkpt lat="45.97004" lon="6.52374">
        <ele>1730</ele>
        <time>2023-05-03T07:15:56Z</time>
      </trkpt>
      <trkpt lat="45.97005" lon="6.5238">
        <ele>1730</ele>
        <time>2023-05-03T07:16:00Z</time>
      </trkpt>
      <trkpt lat="45.97004" lon="6.52396">
        <ele>1730</ele>
        <time>2023-05-03T07:16:10Z</time>
      </trkpt>
      <trkpt lat="45.97004" lon="6.52409">
        <ele>1730</ele>
        <time>2023-05-03T07:16:18Z</time>
      </trkpt>
      <trkpt lat="45.97005" lon="6.52416">
        <ele>1730</ele>
        <time>2023-05-03T07:16:23Z</time>
      </trkpt>
      <trkpt lat="45.97003" lon="6.52422">
        <ele>1730</ele>
        <time>2023-05-03T07:16:27Z</time>
      </trkpt>
      <trkpt lat="45.97001" lon="6.52427">
        <ele>1729</ele>
        <time>2023-05-03T07:16:33Z</time>
      </trkpt>
      <trkpt lat="45.96993" lon="6.52434">
        <ele>1729</ele>
        <time>2023-05-03T07:17:03Z</time>
      </trkpt>
      <trkpt lat="45.96975" lon="6.52451">
        <ele>1730</ele>
        <time>2023-05-03T07:17:22Z</time>
      </trkpt>
      <trkpt lat="45.96972" lon="6.52455">
        <ele>1730</ele>
        <time>2023-05-03T07:17:26Z</time>
      </trkpt>
      <trkpt lat="45.9697" lon="6.52459">
        <ele>1730</ele>
        <time>2023-05-03T07:17:30Z</time>
      </trkpt>
      <trkpt lat="45.96967" lon="6.52463">
        <ele>1730</ele>
        <time>2023-05-03T07:17:35Z</time>
      </trkpt>
      <trkpt lat="45.96963" lon="6.52476">
        <ele>1730</ele>
        <time>2023-05-03T07:19:26Z</time>
      </trkpt>
      <trkpt lat="45.96961" lon="6.52481">
        <ele>1731</ele>
        <time>2023-05-03T07:20:10Z</time>
      </trkpt>
      <trkpt lat="45.96959" lon="6.52486">
        <ele>1732</ele>
        <time>2023-05-03T07:20:15Z</time>
      </trkpt>
      <trkpt lat="45.96957" lon="6.5249">
        <ele>1732</ele>
        <time>2023-05-03T07:20:19Z</time>
      </trkpt>
      <trkpt lat="45.96947" lon="6.52499">
        <ele>1734</ele>
        <time>2023-05-03T07:20:36Z</time>
      </trkpt>
      <trkpt lat="45.96943" lon="6.52509">
        <ele>1734</ele>
        <time>2023-05-03T07:20:47Z</time>
      </trkpt>
      <trkpt lat="45.96938" lon="6.52517">
        <ele>1735</ele>
        <time>2023-05-03T07:20:57Z</time>
      </trkpt>
      <trkpt lat="45.96934" lon="6.52527">
        <ele>1735</ele>
        <time>2023-05-03T07:21:06Z</time>
      </trkpt>
      <trkpt lat="45.96931" lon="6.5253">
        <ele>1735</ele>
        <time>2023-05-03T07:21:10Z</time>
      </trkpt>
      <trkpt lat="45.96927" lon="6.52531">
        <ele>1735</ele>
        <time>2023-05-03T07:21:14Z</time>
      </trkpt>
      <trkpt lat="45.96923" lon="6.52535">
        <ele>1735</ele>
        <time>2023-05-03T07:21:21Z</time>
      </trkpt>
      <trkpt lat="45.96921" lon="6.52538">
        <ele>1735</ele>
        <time>2023-05-03T07:21:26Z</time>
      </trkpt>
      <trkpt lat="45.96915" lon="6.52545">
        <ele>1735</ele>
        <time>2023-05-03T07:21:38Z</time>
      </trkpt>
      <trkpt lat="45.96912" lon="6.52547">
        <ele>1734</ele>
        <time>2023-05-03T07:21:44Z</time>
      </trkpt>
      <trkpt lat="45.96909" lon="6.5255">
        <ele>1734</ele>
        <time>2023-05-03T07:21:51Z</time>
      </trkpt>
      <trkpt lat="45.96904" lon="6.52563">
        <ele>1734</ele>
        <time>2023-05-03T07:22:05Z</time>
      </trkpt>
      <trkpt lat="45.96899" lon="6.52569">
        <ele>1735</ele>
        <time>2023-05-03T07:23:20Z</time>
      </trkpt>
      <trkpt lat="45.96895" lon="6.52573">
        <ele>1736</ele>
        <time>2023-05-03T07:23:22Z</time>
      </trkpt>
      <trkpt lat="45.96892" lon="6.52576">
        <ele>1737</ele>
        <time>2023-05-03T07:23:26Z</time>
      </trkpt>
      <trkpt lat="45.9689" lon="6.5258">
        <ele>1738</ele>
        <time>2023-05-03T07:23:30Z</time>
      </trkpt>
      <trkpt lat="45.96887" lon="6.52585">
        <ele>1738</ele>
        <time>2023-05-03T07:23:37Z</time>
      </trkpt>
      <trkpt lat="45.96881" lon="6.526">
        <ele>1740</ele>
        <time>2023-05-03T07:23:51Z</time>
      </trkpt>
      <trkpt lat="45.96878" lon="6.52605">
        <ele>1741</ele>
        <time>2023-05-03T07:23:56Z</time>
      </trkpt>
      <trkpt lat="45.96876" lon="6.52609">
        <ele>1741</ele>
        <time>2023-05-03T07:24:00Z</time>
      </trkpt>
      <trkpt lat="45.9687" lon="6.52617">
        <ele>1742</ele>
        <time>2023-05-03T07:24:10Z</time>
      </trkpt>
      <trkpt lat="45.96867" lon="6.52621">
        <ele>1742</ele>
        <time>2023-05-03T07:24:15Z</time>
      </trkpt>
      <trkpt lat="45.9686" lon="6.52627">
        <ele>1743</ele>
        <time>2023-05-03T07:24:24Z</time>
      </trkpt>
      <trkpt lat="45.96851" lon="6.5263">
        <ele>1743</ele>
        <time>2023-05-03T07:24:37Z</time>
      </trkpt>
      <trkpt lat="45.96845" lon="6.52632">
        <ele>1743</ele>
        <time>2023-05-03T07:24:42Z</time>
      </trkpt>
      <trkpt lat="45.96839" lon="6.5263">
        <ele>1744</ele>
        <time>2023-05-03T07:24:48Z</time>
      </trkpt>
      <trkpt lat="45.96833" lon="6.52631">
        <ele>1744</ele>
        <time>2023-05-03T07:24:56Z</time>
      </trkpt>
      <trkpt lat="45.96829" lon="6.52633">
        <ele>1744</ele>
        <time>2023-05-03T07:25:02Z</time>
      </trkpt>
      <trkpt lat="45.96819" lon="6.52632">
        <ele>1745</ele>
        <time>2023-05-03T07:25:18Z</time>
      </trkpt>
      <trkpt lat="45.96808" lon="6.52636">
        <ele>1746</ele>
        <time>2023-05-03T07:25:35Z</time>
      </trkpt>
      <trkpt lat="45.96803" lon="6.52637">
        <ele>1746</ele>
        <time>2023-05-03T07:25:47Z</time>
      </trkpt>
      <trkpt lat="45.96792" lon="6.52633">
        <ele>1747</ele>
        <time>2023-05-03T07:26:02Z</time>
      </trkpt>
      <trkpt lat="45.96786" lon="6.52637">
        <ele>1748</ele>
        <time>2023-05-03T07:26:12Z</time>
      </trkpt>
      <trkpt lat="45.96775" lon="6.52636">
        <ele>1750</ele>
        <time>2023-05-03T07:26:31Z</time>
      </trkpt>
      <trkpt lat="45.9677" lon="6.52634">
        <ele>1751</ele>
        <time>2023-05-03T07:26:46Z</time>
      </trkpt>
      <trkpt lat="45.96765" lon="6.52631">
        <ele>1752</ele>
        <time>2023-05-03T07:26:54Z</time>
      </trkpt>
      <trkpt lat="45.96759" lon="6.52627">
        <ele>1753</ele>
        <time>2023-05-03T07:27:05Z</time>
      </trkpt>
      <trkpt lat="45.96753" lon="6.52637">
        <ele>1755</ele>
        <time>2023-05-03T07:27:21Z</time>
      </trkpt>
      <trkpt lat="45.96751" lon="6.52648">
        <ele>1757</ele>
        <time>2023-05-03T07:27:35Z</time>
      </trkpt>
      <trkpt lat="45.9675" lon="6.52653">
        <ele>1759</ele>
        <time>2023-05-03T07:27:45Z</time>
      </trkpt>
      <trkpt lat="45.96748" lon="6.52658">
        <ele>1761</ele>
        <time>2023-05-03T07:27:56Z</time>
      </trkpt>
      <trkpt lat="45.96743" lon="6.52663">
        <ele>1763</ele>
        <time>2023-05-03T07:28:08Z</time>
      </trkpt>
      <trkpt lat="45.96738" lon="6.52661">
        <ele>1763</ele>
        <time>2023-05-03T07:28:16Z</time>
      </trkpt>
      <trkpt lat="45.96723" lon="6.52649">
        <ele>1768</ele>
        <time>2023-05-03T07:28:45Z</time>
      </trkpt>
      <trkpt lat="45.96718" lon="6.52647">
        <ele>1768</ele>
        <time>2023-05-03T07:28:50Z</time>
      </trkpt>
      <trkpt lat="45.96712" lon="6.52651">
        <ele>1770</ele>
        <time>2023-05-03T07:29:02Z</time>
      </trkpt>
      <trkpt lat="45.96709" lon="6.52655">
        <ele>1771</ele>
        <time>2023-05-03T07:29:12Z</time>
      </trkpt>
      <trkpt lat="45.96706" lon="6.52656">
        <ele>1771</ele>
        <time>2023-05-03T07:29:20Z</time>
      </trkpt>
      <trkpt lat="45.96702" lon="6.52656">
        <ele>1772</ele>
        <time>2023-05-03T07:29:25Z</time>
      </trkpt>
      <trkpt lat="45.96695" lon="6.52656">
        <ele>1772</ele>
        <time>2023-05-03T07:29:31Z</time>
      </trkpt>
      <trkpt lat="45.96689" lon="6.52656">
        <ele>1773</ele>
        <time>2023-05-03T07:29:38Z</time>
      </trkpt>
      <trkpt lat="45.96684" lon="6.52656">
        <ele>1773</ele>
        <time>2023-05-03T07:29:43Z</time>
      </trkpt>
      <trkpt lat="45.96678" lon="6.52653">
        <ele>1775</ele>
        <time>2023-05-03T07:29:54Z</time>
      </trkpt>
      <trkpt lat="45.96672" lon="6.52653">
        <ele>1775</ele>
        <time>2023-05-03T07:30:03Z</time>
      </trkpt>
      <trkpt lat="45.9666" lon="6.52648">
        <ele>1777</ele>
        <time>2023-05-03T07:30:18Z</time>
      </trkpt>
      <trkpt lat="45.96657" lon="6.52651">
        <ele>1779</ele>
        <time>2023-05-03T07:30:26Z</time>
      </trkpt>
      <trkpt lat="45.96653" lon="6.52652">
        <ele>1780</ele>
        <time>2023-05-03T07:30:33Z</time>
      </trkpt>
      <trkpt lat="45.96645" lon="6.52641">
        <ele>1783</ele>
        <time>2023-05-03T07:30:59Z</time>
      </trkpt>
      <trkpt lat="45.96641" lon="6.52641">
        <ele>1785</ele>
        <time>2023-05-03T07:31:07Z</time>
      </trkpt>
      <trkpt lat="45.96637" lon="6.52644">
        <ele>1786</ele>
        <time>2023-05-03T07:31:12Z</time>
      </trkpt>
      <trkpt lat="45.96631" lon="6.52644">
        <ele>1786</ele>
        <time>2023-05-03T07:31:21Z</time>
      </trkpt>
      <trkpt lat="45.9662" lon="6.5264">
        <ele>1789</ele>
        <time>2023-05-03T07:31:49Z</time>
      </trkpt>
      <trkpt lat="45.96615" lon="6.52636">
        <ele>1792</ele>
        <time>2023-05-03T07:31:55Z</time>
      </trkpt>
      <trkpt lat="45.9661" lon="6.52635">
        <ele>1792</ele>
        <time>2023-05-03T07:32:01Z</time>
      </trkpt>
      <trkpt lat="45.96598" lon="6.52632">
        <ele>1794</ele>
        <time>2023-05-03T07:32:13Z</time>
      </trkpt>
      <trkpt lat="45.96589" lon="6.52632">
        <ele>1796</ele>
        <time>2023-05-03T07:32:43Z</time>
      </trkpt>
      <trkpt lat="45.96578" lon="6.5263">
        <ele>1797</ele>
        <time>2023-05-03T07:33:13Z</time>
      </trkpt>
      <trkpt lat="45.96572" lon="6.52629">
        <ele>1798</ele>
        <time>2023-05-03T07:33:21Z</time>
      </trkpt>
      <trkpt lat="45.96568" lon="6.5263">
        <ele>1799</ele>
        <time>2023-05-03T07:33:54Z</time>
      </trkpt>
      <trkpt lat="45.96562" lon="6.52629">
        <ele>1802</ele>
        <time>2023-05-03T07:39:21Z</time>
      </trkpt>
      <trkpt lat="45.96557" lon="6.5263">
        <ele>1805</ele>
        <time>2023-05-03T07:39:25Z</time>
      </trkpt>
      <trkpt lat="45.96551" lon="6.52627">
        <ele>1807</ele>
        <time>2023-05-03T07:39:30Z</time>
      </trkpt>
      <trkpt lat="45.96548" lon="6.52621">
        <ele>1808</ele>
        <time>2023-05-03T07:39:38Z</time>
      </trkpt>
      <trkpt lat="45.96543" lon="6.5262">
        <ele>1809</ele>
        <time>2023-05-03T07:39:47Z</time>
      </trkpt>
      <trkpt lat="45.96538" lon="6.52617">
        <ele>1809</ele>
        <time>2023-05-03T07:39:55Z</time>
      </trkpt>
      <trkpt lat="45.96532" lon="6.52618">
        <ele>1811</ele>
        <time>2023-05-03T07:40:04Z</time>
      </trkpt>
      <trkpt lat="45.96526" lon="6.52617">
        <ele>1811</ele>
        <time>2023-05-03T07:40:16Z</time>
      </trkpt>
      <trkpt lat="45.96522" lon="6.52612">
        <ele>1812</ele>
        <time>2023-05-03T07:40:22Z</time>
      </trkpt>
      <trkpt lat="45.96516" lon="6.5261">
        <ele>1812</ele>
        <time>2023-05-03T07:40:33Z</time>
      </trkpt>
      <trkpt lat="45.96512" lon="6.52609">
        <ele>1813</ele>
        <time>2023-05-03T07:40:39Z</time>
      </trkpt>
      <trkpt lat="45.96504" lon="6.52614">
        <ele>1814</ele>
        <time>2023-05-03T07:40:56Z</time>
      </trkpt>
      <trkpt lat="45.96493" lon="6.52616">
        <ele>1815</ele>
        <time>2023-05-03T07:41:12Z</time>
      </trkpt>
      <trkpt lat="45.96475" lon="6.52612">
        <ele>1818</ele>
        <time>2023-05-03T07:41:38Z</time>
      </trkpt>
      <trkpt lat="45.96469" lon="6.52611">
        <ele>1818</ele>
        <time>2023-05-03T07:41:45Z</time>
      </trkpt>
      <trkpt lat="45.96464" lon="6.52611">
        <ele>1819</ele>
        <time>2023-05-03T07:41:49Z</time>
      </trkpt>
      <trkpt lat="45.96458" lon="6.52613">
        <ele>1820</ele>
        <time>2023-05-03T07:41:56Z</time>
      </trkpt>
      <trkpt lat="45.96447" lon="6.52613">
        <ele>1822</ele>
        <time>2023-05-03T07:42:17Z</time>
      </trkpt>
      <trkpt lat="45.96435" lon="6.52615">
        <ele>1825</ele>
        <time>2023-05-03T07:42:39Z</time>
      </trkpt>
      <trkpt lat="45.96432" lon="6.52617">
        <ele>1826</ele>
        <time>2023-05-03T07:42:45Z</time>
      </trkpt>
      <trkpt lat="45.96429" lon="6.52622">
        <ele>1827</ele>
        <time>2023-05-03T07:42:55Z</time>
      </trkpt>
      <trkpt lat="45.96426" lon="6.52625">
        <ele>1828</ele>
        <time>2023-05-03T07:43:03Z</time>
      </trkpt>
      <trkpt lat="45.96425" lon="6.52629">
        <ele>1829</ele>
        <time>2023-05-03T07:43:08Z</time>
      </trkpt>
      <trkpt lat="45.96424" lon="6.52634">
        <ele>1829</ele>
        <time>2023-05-03T07:43:14Z</time>
      </trkpt>
      <trkpt lat="45.96425" lon="6.52639">
        <ele>1831</ele>
        <time>2023-05-03T07:43:21Z</time>
      </trkpt>
      <trkpt lat="45.96428" lon="6.52643">
        <ele>1832</ele>
        <time>2023-05-03T07:43:29Z</time>
      </trkpt>
      <trkpt lat="45.96439" lon="6.52651">
        <ele>1835</ele>
        <time>2023-05-03T07:43:46Z</time>
      </trkpt>
      <trkpt lat="45.96448" lon="6.52666">
        <ele>1838</ele>
        <time>2023-05-03T07:44:10Z</time>
      </trkpt>
      <trkpt lat="45.96448" lon="6.52672">
        <ele>1840</ele>
        <time>2023-05-03T07:44:21Z</time>
      </trkpt>
      <trkpt lat="45.96453" lon="6.52681">
        <ele>1841</ele>
        <time>2023-05-03T07:44:35Z</time>
      </trkpt>
      <trkpt lat="45.96455" lon="6.52686">
        <ele>1842</ele>
        <time>2023-05-03T07:44:42Z</time>
      </trkpt>
      <trkpt lat="45.9646" lon="6.52695">
        <ele>1843</ele>
        <time>2023-05-03T07:44:53Z</time>
      </trkpt>
      <trkpt lat="45.96466" lon="6.52704">
        <ele>1844</ele>
        <time>2023-05-03T07:45:07Z</time>
      </trkpt>
      <trkpt lat="45.96469" lon="6.52719">
        <ele>1845</ele>
        <time>2023-05-03T07:45:16Z</time>
      </trkpt>
      <trkpt lat="45.9647" lon="6.52734">
        <ele>1846</ele>
        <time>2023-05-03T07:45:27Z</time>
      </trkpt>
      <trkpt lat="45.96471" lon="6.52739">
        <ele>1847</ele>
        <time>2023-05-03T07:45:31Z</time>
      </trkpt>
      <trkpt lat="45.96474" lon="6.52753">
        <ele>1847</ele>
        <time>2023-05-03T07:45:39Z</time>
      </trkpt>
      <trkpt lat="45.96473" lon="6.52785">
        <ele>1848</ele>
        <time>2023-05-03T07:45:46Z</time>
      </trkpt>
      <trkpt lat="45.96466" lon="6.52815">
        <ele>1849</ele>
        <time>2023-05-03T07:46:06Z</time>
      </trkpt>
      <trkpt lat="45.96459" lon="6.52823">
        <ele>1850</ele>
        <time>2023-05-03T07:46:15Z</time>
      </trkpt>
      <trkpt lat="45.96453" lon="6.52826">
        <ele>1850</ele>
        <time>2023-05-03T07:46:23Z</time>
      </trkpt>
      <trkpt lat="45.9645" lon="6.5283">
        <ele>1851</ele>
        <time>2023-05-03T07:47:34Z</time>
      </trkpt>
      <trkpt lat="45.96447" lon="6.52833">
        <ele>1852</ele>
        <time>2023-05-03T07:47:38Z</time>
      </trkpt>
      <trkpt lat="45.96444" lon="6.52835">
        <ele>1852</ele>
        <time>2023-05-03T07:47:41Z</time>
      </trkpt>
      <trkpt lat="45.9644" lon="6.52837">
        <ele>1853</ele>
        <time>2023-05-03T07:47:48Z</time>
      </trkpt>
      <trkpt lat="45.96428" lon="6.52861">
        <ele>1854</ele>
        <time>2023-05-03T07:48:19Z</time>
      </trkpt>
      <trkpt lat="45.96414" lon="6.52884">
        <ele>1856</ele>
        <time>2023-05-03T07:48:41Z</time>
      </trkpt>
      <trkpt lat="45.96411" lon="6.52886">
        <ele>1857</ele>
        <time>2023-05-03T07:48:45Z</time>
      </trkpt>
      <trkpt lat="45.96408" lon="6.5289">
        <ele>1858</ele>
        <time>2023-05-03T07:48:53Z</time>
      </trkpt>
      <trkpt lat="45.96402" lon="6.52898">
        <ele>1860</ele>
        <time>2023-05-03T07:49:09Z</time>
      </trkpt>
      <trkpt lat="45.96402" lon="6.52903">
        <ele>1860</ele>
        <time>2023-05-03T07:49:19Z</time>
      </trkpt>
      <trkpt lat="45.96399" lon="6.52903">
        <ele>1861</ele>
        <time>2023-05-03T07:49:28Z</time>
      </trkpt>
      <trkpt lat="45.96396" lon="6.52902">
        <ele>1862</ele>
        <time>2023-05-03T07:49:34Z</time>
      </trkpt>
      <trkpt lat="45.96397" lon="6.52915">
        <ele>1864</ele>
        <time>2023-05-03T07:49:50Z</time>
      </trkpt>
      <trkpt lat="45.96395" lon="6.52919">
        <ele>1864</ele>
        <time>2023-05-03T07:50:01Z</time>
      </trkpt>
      <trkpt lat="45.96393" lon="6.52922">
        <ele>1865</ele>
        <time>2023-05-03T07:50:07Z</time>
      </trkpt>
      <trkpt lat="45.96389" lon="6.52921">
        <ele>1867</ele>
        <time>2023-05-03T07:52:00Z</time>
      </trkpt>
      <trkpt lat="45.96386" lon="6.52925">
        <ele>1867</ele>
        <time>2023-05-03T07:52:39Z</time>
      </trkpt>
      <trkpt lat="45.96384" lon="6.52927">
        <ele>1870</ele>
        <time>2023-05-03T07:52:45Z</time>
      </trkpt>
      <trkpt lat="45.9638" lon="6.52938">
        <ele>1871</ele>
        <time>2023-05-03T07:53:24Z</time>
      </trkpt>
      <trkpt lat="45.96378" lon="6.52949">
        <ele>1873</ele>
        <time>2023-05-03T07:53:40Z</time>
      </trkpt>
      <trkpt lat="45.96378" lon="6.52955">
        <ele>1873</ele>
        <time>2023-05-03T07:53:45Z</time>
      </trkpt>
      <trkpt lat="45.96379" lon="6.5296">
        <ele>1874</ele>
        <time>2023-05-03T07:53:57Z</time>
      </trkpt>
      <trkpt lat="45.96377" lon="6.52975">
        <ele>1875</ele>
        <time>2023-05-03T07:54:25Z</time>
      </trkpt>
      <trkpt lat="45.96377" lon="6.52981">
        <ele>1875</ele>
        <time>2023-05-03T07:54:47Z</time>
      </trkpt>
      <trkpt lat="45.96376" lon="6.52986">
        <ele>1875</ele>
        <time>2023-05-03T07:54:58Z</time>
      </trkpt>
      <trkpt lat="45.96379" lon="6.52999">
        <ele>1875</ele>
        <time>2023-05-03T07:55:34Z</time>
      </trkpt>
      <trkpt lat="45.96379" lon="6.53005">
        <ele>1875</ele>
        <time>2023-05-03T07:55:56Z</time>
      </trkpt>
      <trkpt lat="45.96377" lon="6.53029">
        <ele>1875</ele>
        <time>2023-05-03T07:56:27Z</time>
      </trkpt>
      <trkpt lat="45.96377" lon="6.53039">
        <ele>1875</ele>
        <time>2023-05-03T07:56:49Z</time>
      </trkpt>
      <trkpt lat="45.96379" lon="6.53058">
        <ele>1875</ele>
        <time>2023-05-03T07:57:19Z</time>
      </trkpt>
      <trkpt lat="45.96378" lon="6.53064">
        <ele>1875</ele>
        <time>2023-05-03T07:57:38Z</time>
      </trkpt>
      <trkpt lat="45.96376" lon="6.53068">
        <ele>1875</ele>
        <time>2023-05-03T07:57:44Z</time>
      </trkpt>
      <trkpt lat="45.96372" lon="6.53083">
        <ele>1875</ele>
        <time>2023-05-03T07:58:00Z</time>
      </trkpt>
      <trkpt lat="45.96372" lon="6.53099">
        <ele>1876</ele>
        <time>2023-05-03T07:58:18Z</time>
      </trkpt>
      <trkpt lat="45.96366" lon="6.53116">
        <ele>1878</ele>
        <time>2023-05-03T07:58:40Z</time>
      </trkpt>
      <trkpt lat="45.96365" lon="6.5312">
        <ele>1878</ele>
        <time>2023-05-03T07:58:44Z</time>
      </trkpt>
      <trkpt lat="45.96357" lon="6.53137">
        <ele>1879</ele>
        <time>2023-05-03T07:59:02Z</time>
      </trkpt>
      <trkpt lat="45.96355" lon="6.53142">
        <ele>1880</ele>
        <time>2023-05-03T07:59:09Z</time>
      </trkpt>
      <trkpt lat="45.96354" lon="6.53147">
        <ele>1881</ele>
        <time>2023-05-03T07:59:17Z</time>
      </trkpt>
      <trkpt lat="45.96353" lon="6.53152">
        <ele>1881</ele>
        <time>2023-05-03T07:59:23Z</time>
      </trkpt>
      <trkpt lat="45.96353" lon="6.53154">
        <ele>1883</ele>
        <time>2023-05-03T08:01:48Z</time>
      </trkpt>
      <trkpt lat="45.96352" lon="6.53158">
        <ele>1884</ele>
        <time>2023-05-03T08:03:49Z</time>
      </trkpt>
      <trkpt lat="45.9635" lon="6.53162">
        <ele>1884</ele>
        <time>2023-05-03T08:03:54Z</time>
      </trkpt>
      <trkpt lat="45.9635" lon="6.53167">
        <ele>1887</ele>
        <time>2023-05-03T08:04:32Z</time>
      </trkpt>
      <trkpt lat="45.96349" lon="6.53173">
        <ele>1888</ele>
        <time>2023-05-03T08:04:39Z</time>
      </trkpt>
      <trkpt lat="45.96347" lon="6.53185">
        <ele>1890</ele>
        <time>2023-05-03T08:04:53Z</time>
      </trkpt>
      <trkpt lat="45.96345" lon="6.53194">
        <ele>1891</ele>
        <time>2023-05-03T08:05:08Z</time>
      </trkpt>
      <trkpt lat="45.96343" lon="6.53201">
        <ele>1891</ele>
        <time>2023-05-03T08:05:16Z</time>
      </trkpt>
      <trkpt lat="45.96344" lon="6.53209">
        <ele>1892</ele>
        <time>2023-05-03T08:05:24Z</time>
      </trkpt>
      <trkpt lat="45.96343" lon="6.53214">
        <ele>1892</ele>
        <time>2023-05-03T08:05:29Z</time>
      </trkpt>
      <trkpt lat="45.96345" lon="6.5322">
        <ele>1892</ele>
        <time>2023-05-03T08:05:36Z</time>
      </trkpt>
      <trkpt lat="45.96347" lon="6.53225">
        <ele>1893</ele>
        <time>2023-05-03T08:05:43Z</time>
      </trkpt>
      <trkpt lat="45.96347" lon="6.53231">
        <ele>1893</ele>
        <time>2023-05-03T08:05:48Z</time>
      </trkpt>
      <trkpt lat="45.96346" lon="6.53236">
        <ele>1894</ele>
        <time>2023-05-03T08:05:57Z</time>
      </trkpt>
      <trkpt lat="45.96342" lon="6.53247">
        <ele>1894</ele>
        <time>2023-05-03T08:06:08Z</time>
      </trkpt>
      <trkpt lat="45.96342" lon="6.53252">
        <ele>1895</ele>
        <time>2023-05-03T08:06:16Z</time>
      </trkpt>
      <trkpt lat="45.96342" lon="6.53257">
        <ele>1895</ele>
        <time>2023-05-03T08:06:22Z</time>
      </trkpt>
      <trkpt lat="45.96344" lon="6.53271">
        <ele>1899</ele>
        <time>2023-05-03T08:06:45Z</time>
      </trkpt>
      <trkpt lat="45.96345" lon="6.53274">
        <ele>1899</ele>
        <time>2023-05-03T08:06:51Z</time>
      </trkpt>
      <trkpt lat="45.96345" lon="6.53279">
        <ele>1900</ele>
        <time>2023-05-03T08:06:58Z</time>
      </trkpt>
      <trkpt lat="45.96347" lon="6.53283">
        <ele>1901</ele>
        <time>2023-05-03T08:07:05Z</time>
      </trkpt>
      <trkpt lat="45.9635" lon="6.53289">
        <ele>1902</ele>
        <time>2023-05-03T08:07:13Z</time>
      </trkpt>
      <trkpt lat="45.96352" lon="6.53293">
        <ele>1903</ele>
        <time>2023-05-03T08:07:20Z</time>
      </trkpt>
      <trkpt lat="45.96354" lon="6.53298">
        <ele>1904</ele>
        <time>2023-05-03T08:07:28Z</time>
      </trkpt>
      <trkpt lat="45.96358" lon="6.53308">
        <ele>1906</ele>
        <time>2023-05-03T08:07:45Z</time>
      </trkpt>
      <trkpt lat="45.9636" lon="6.53313">
        <ele>1907</ele>
        <time>2023-05-03T08:07:52Z</time>
      </trkpt>
      <trkpt lat="45.96365" lon="6.53321">
        <ele>1908</ele>
        <time>2023-05-03T08:08:06Z</time>
      </trkpt>
      <trkpt lat="45.96369" lon="6.53324">
        <ele>1909</ele>
        <time>2023-05-03T08:08:11Z</time>
      </trkpt>
      <trkpt lat="45.96371" lon="6.53327">
        <ele>1910</ele>
        <time>2023-05-03T08:08:20Z</time>
      </trkpt>
      <trkpt lat="45.96374" lon="6.5333">
        <ele>1910</ele>
        <time>2023-05-03T08:08:26Z</time>
      </trkpt>
      <trkpt lat="45.96376" lon="6.53335">
        <ele>1911</ele>
        <time>2023-05-03T08:08:32Z</time>
      </trkpt>
      <trkpt lat="45.96379" lon="6.53339">
        <ele>1912</ele>
        <time>2023-05-03T08:08:41Z</time>
      </trkpt>
      <trkpt lat="45.96383" lon="6.53348">
        <ele>1912</ele>
        <time>2023-05-03T08:08:53Z</time>
      </trkpt>
      <trkpt lat="45.96385" lon="6.53353">
        <ele>1913</ele>
        <time>2023-05-03T08:09:01Z</time>
      </trkpt>
      <trkpt lat="45.96387" lon="6.53356">
        <ele>1913</ele>
        <time>2023-05-03T08:09:09Z</time>
      </trkpt>
      <trkpt lat="45.96388" lon="6.53361">
        <ele>1914</ele>
        <time>2023-05-03T08:09:19Z</time>
      </trkpt>
      <trkpt lat="45.96386" lon="6.53366">
        <ele>1914</ele>
        <time>2023-05-03T08:09:29Z</time>
      </trkpt>
      <trkpt lat="45.96384" lon="6.53371">
        <ele>1915</ele>
        <time>2023-05-03T08:09:41Z</time>
      </trkpt>
      <trkpt lat="45.96382" lon="6.53376">
        <ele>1916</ele>
        <time>2023-05-03T08:09:50Z</time>
      </trkpt>
      <trkpt lat="45.9638" lon="6.53382">
        <ele>1917</ele>
        <time>2023-05-03T08:10:21Z</time>
      </trkpt>
      <trkpt lat="45.96378" lon="6.53386">
        <ele>1917</ele>
        <time>2023-05-03T08:10:26Z</time>
      </trkpt>
      <trkpt lat="45.96376" lon="6.5339">
        <ele>1918</ele>
        <time>2023-05-03T08:10:31Z</time>
      </trkpt>
      <trkpt lat="45.96374" lon="6.53394">
        <ele>1918</ele>
        <time>2023-05-03T08:10:38Z</time>
      </trkpt>
      <trkpt lat="45.96374" lon="6.53398">
        <ele>1919</ele>
        <time>2023-05-03T08:10:42Z</time>
      </trkpt>
      <trkpt lat="45.96377" lon="6.53412">
        <ele>1920</ele>
        <time>2023-05-03T08:11:02Z</time>
      </trkpt>
      <trkpt lat="45.96387" lon="6.53424">
        <ele>1921</ele>
        <time>2023-05-03T08:12:28Z</time>
      </trkpt>
      <trkpt lat="45.96393" lon="6.53434">
        <ele>1922</ele>
        <time>2023-05-03T08:12:38Z</time>
      </trkpt>
      <trkpt lat="45.96396" lon="6.53438">
        <ele>1922</ele>
        <time>2023-05-03T08:12:53Z</time>
      </trkpt>
      <trkpt lat="45.96398" lon="6.53442">
        <ele>1922</ele>
        <time>2023-05-03T08:13:29Z</time>
      </trkpt>
      <trkpt lat="45.964" lon="6.53446">
        <ele>1922</ele>
        <time>2023-05-03T08:13:34Z</time>
      </trkpt>
      <trkpt lat="45.96403" lon="6.5345">
        <ele>1923</ele>
        <time>2023-05-03T08:13:39Z</time>
      </trkpt>
      <trkpt lat="45.96406" lon="6.53453">
        <ele>1923</ele>
        <time>2023-05-03T08:13:45Z</time>
      </trkpt>
      <trkpt lat="45.96408" lon="6.53458">
        <ele>1923</ele>
        <time>2023-05-03T08:13:52Z</time>
      </trkpt>
      <trkpt lat="45.96411" lon="6.53462">
        <ele>1923</ele>
        <time>2023-05-03T08:13:58Z</time>
      </trkpt>
      <trkpt lat="45.96413" lon="6.53466">
        <ele>1923</ele>
        <time>2023-05-03T08:14:03Z</time>
      </trkpt>
      <trkpt lat="45.96416" lon="6.53471">
        <ele>1924</ele>
        <time>2023-05-03T08:14:13Z</time>
      </trkpt>
      <trkpt lat="45.96418" lon="6.53476">
        <ele>1924</ele>
        <time>2023-05-03T08:14:21Z</time>
      </trkpt>
      <trkpt lat="45.96431" lon="6.53496">
        <ele>1926</ele>
        <time>2023-05-03T08:15:01Z</time>
      </trkpt>
      <trkpt lat="45.96433" lon="6.53501">
        <ele>1927</ele>
        <time>2023-05-03T08:15:07Z</time>
      </trkpt>
      <trkpt lat="45.96439" lon="6.5351">
        <ele>1928</ele>
        <time>2023-05-03T08:15:21Z</time>
      </trkpt>
      <trkpt lat="45.96445" lon="6.53517">
        <ele>1929</ele>
        <time>2023-05-03T08:15:37Z</time>
      </trkpt>
      <trkpt lat="45.9645" lon="6.53526">
        <ele>1930</ele>
        <time>2023-05-03T08:15:50Z</time>
      </trkpt>
      <trkpt lat="45.96454" lon="6.53543">
        <ele>1932</ele>
        <time>2023-05-03T08:16:23Z</time>
      </trkpt>
      <trkpt lat="45.96462" lon="6.53555">
        <ele>1933</ele>
        <time>2023-05-03T08:16:51Z</time>
      </trkpt>
      <trkpt lat="45.96466" lon="6.53565">
        <ele>1934</ele>
        <time>2023-05-03T08:17:03Z</time>
      </trkpt>
      <trkpt lat="45.96468" lon="6.53569">
        <ele>1934</ele>
        <time>2023-05-03T08:17:11Z</time>
      </trkpt>
      <trkpt lat="45.96469" lon="6.53574">
        <ele>1935</ele>
        <time>2023-05-03T08:17:16Z</time>
      </trkpt>
      <trkpt lat="45.96471" lon="6.53578">
        <ele>1935</ele>
        <time>2023-05-03T08:17:21Z</time>
      </trkpt>
      <trkpt lat="45.96472" lon="6.53583">
        <ele>1935</ele>
        <time>2023-05-03T08:17:30Z</time>
      </trkpt>
      <trkpt lat="45.96475" lon="6.53595">
        <ele>1936</ele>
        <time>2023-05-03T08:17:43Z</time>
      </trkpt>
      <trkpt lat="45.96476" lon="6.53599">
        <ele>1937</ele>
        <time>2023-05-03T08:17:48Z</time>
      </trkpt>
      <trkpt lat="45.96477" lon="6.53605">
        <ele>1937</ele>
        <time>2023-05-03T08:17:54Z</time>
      </trkpt>
      <trkpt lat="45.96474" lon="6.53609">
        <ele>1938</ele>
        <time>2023-05-03T08:17:59Z</time>
      </trkpt>
      <trkpt lat="45.96464" lon="6.53623">
        <ele>1939</ele>
        <time>2023-05-03T08:18:12Z</time>
      </trkpt>
      <trkpt lat="45.96462" lon="6.53627">
        <ele>1939</ele>
        <time>2023-05-03T08:18:16Z</time>
      </trkpt>
      <trkpt lat="45.96459" lon="6.53632">
        <ele>1939</ele>
        <time>2023-05-03T08:18:24Z</time>
      </trkpt>
      <trkpt lat="45.96447" lon="6.53644">
        <ele>1940</ele>
        <time>2023-05-03T08:18:39Z</time>
      </trkpt>
      <trkpt lat="45.96443" lon="6.53647">
        <ele>1941</ele>
        <time>2023-05-03T08:18:43Z</time>
      </trkpt>
      <trkpt lat="45.96432" lon="6.53658">
        <ele>1942</ele>
        <time>2023-05-03T08:20:45Z</time>
      </trkpt>
      <trkpt lat="45.96427" lon="6.53667">
        <ele>1942</ele>
        <time>2023-05-03T08:20:51Z</time>
      </trkpt>
      <trkpt lat="45.96421" lon="6.5368">
        <ele>1942</ele>
        <time>2023-05-03T08:20:56Z</time>
      </trkpt>
      <trkpt lat="45.96419" lon="6.53686">
        <ele>1942</ele>
        <time>2023-05-03T08:20:58Z</time>
      </trkpt>
      <trkpt lat="45.96414" lon="6.53696">
        <ele>1942</ele>
        <time>2023-05-03T08:21:08Z</time>
      </trkpt>
      <trkpt lat="45.96413" lon="6.53701">
        <ele>1942</ele>
        <time>2023-05-03T08:21:15Z</time>
      </trkpt>
      <trkpt lat="45.96411" lon="6.53705">
        <ele>1942</ele>
        <time>2023-05-03T08:21:59Z</time>
      </trkpt>
      <trkpt lat="45.96408" lon="6.53709">
        <ele>1943</ele>
        <time>2023-05-03T08:23:10Z</time>
      </trkpt>
      <trkpt lat="45.96407" lon="6.53723">
        <ele>1943</ele>
        <time>2023-05-03T08:23:49Z</time>
      </trkpt>
      <trkpt lat="45.96408" lon="6.53717">
        <ele>1943</ele>
        <time>2023-05-03T08:24:17Z</time>
      </trkpt>
      <trkpt lat="45.96406" lon="6.53718">
        <ele>1943</ele>
        <time>2023-05-03T08:24:46Z</time>
      </trkpt>
      <trkpt lat="45.96404" lon="6.53726">
        <ele>1943</ele>
        <time>2023-05-03T08:25:13Z</time>
      </trkpt>
      <trkpt lat="45.96405" lon="6.53734">
        <ele>1943</ele>
        <time>2023-05-03T08:26:02Z</time>
      </trkpt>
      <trkpt lat="45.96401" lon="6.53741">
        <ele>1942</ele>
        <time>2023-05-03T08:26:12Z</time>
      </trkpt>
      <trkpt lat="45.96398" lon="6.53748">
        <ele>1942</ele>
        <time>2023-05-03T08:26:23Z</time>
      </trkpt>
      <trkpt lat="45.96397" lon="6.53756">
        <ele>1941</ele>
        <time>2023-05-03T08:26:34Z</time>
      </trkpt>
      <trkpt lat="45.96393" lon="6.53762">
        <ele>1941</ele>
        <time>2023-05-03T08:26:39Z</time>
      </trkpt>
      <trkpt lat="45.9639" lon="6.53769">
        <ele>1941</ele>
        <time>2023-05-03T08:26:47Z</time>
      </trkpt>
      <trkpt lat="45.96385" lon="6.53788">
        <ele>1940</ele>
        <time>2023-05-03T08:27:01Z</time>
      </trkpt>
      <trkpt lat="45.96381" lon="6.53794">
        <ele>1940</ele>
        <time>2023-05-03T08:27:06Z</time>
      </trkpt>
      <trkpt lat="45.96378" lon="6.53797">
        <ele>1940</ele>
        <time>2023-05-03T08:27:30Z</time>
      </trkpt>
      <trkpt lat="45.96375" lon="6.538">
        <ele>1939</ele>
        <time>2023-05-03T08:27:53Z</time>
      </trkpt>
      <trkpt lat="45.96372" lon="6.53795">
        <ele>1939</ele>
        <time>2023-05-03T08:28:08Z</time>
      </trkpt>
      <trkpt lat="45.96368" lon="6.53795">
        <ele>1938</ele>
        <time>2023-05-03T08:28:24Z</time>
      </trkpt>
      <trkpt lat="45.96367" lon="6.53802">
        <ele>1937</ele>
        <time>2023-05-03T08:28:40Z</time>
      </trkpt>
      <trkpt lat="45.96363" lon="6.53808">
        <ele>1935</ele>
        <time>2023-05-03T08:28:47Z</time>
      </trkpt>
      <trkpt lat="45.9636" lon="6.53811">
        <ele>1935</ele>
        <time>2023-05-03T08:28:51Z</time>
      </trkpt>
      <trkpt lat="45.96342" lon="6.53823">
        <ele>1932</ele>
        <time>2023-05-03T08:30:25Z</time>
      </trkpt>
      <trkpt lat="45.96337" lon="6.53829">
        <ele>1929</ele>
        <time>2023-05-03T08:30:32Z</time>
      </trkpt>
      <trkpt lat="45.96327" lon="6.53835">
        <ele>1927</ele>
        <time>2023-05-03T08:30:46Z</time>
      </trkpt>
      <trkpt lat="45.96321" lon="6.53837">
        <ele>1926</ele>
        <time>2023-05-03T08:30:53Z</time>
      </trkpt>
      <trkpt lat="45.96316" lon="6.53838">
        <ele>1925</ele>
        <time>2023-05-03T08:31:01Z</time>
      </trkpt>
      <trkpt lat="45.96305" lon="6.53845">
        <ele>1924</ele>
        <time>2023-05-03T08:31:16Z</time>
      </trkpt>
      <trkpt lat="45.963" lon="6.53846">
        <ele>1924</ele>
        <time>2023-05-03T08:31:23Z</time>
      </trkpt>
      <trkpt lat="45.96294" lon="6.53847">
        <ele>1924</ele>
        <time>2023-05-03T08:31:32Z</time>
      </trkpt>
      <trkpt lat="45.96288" lon="6.53849">
        <ele>1923</ele>
        <time>2023-05-03T08:31:40Z</time>
      </trkpt>
      <trkpt lat="45.96285" lon="6.53855">
        <ele>1923</ele>
        <time>2023-05-03T08:31:48Z</time>
      </trkpt>
      <trkpt lat="45.96265" lon="6.53867">
        <ele>1923</ele>
        <time>2023-05-03T08:33:03Z</time>
      </trkpt>
      <trkpt lat="45.96262" lon="6.53868">
        <ele>1923</ele>
        <time>2023-05-03T08:33:07Z</time>
      </trkpt>
      <trkpt lat="45.96259" lon="6.53871">
        <ele>1924</ele>
        <time>2023-05-03T08:33:13Z</time>
      </trkpt>
      <trkpt lat="45.96254" lon="6.53875">
        <ele>1924</ele>
        <time>2023-05-03T08:33:21Z</time>
      </trkpt>
      <trkpt lat="45.96249" lon="6.53881">
        <ele>1924</ele>
        <time>2023-05-03T08:33:32Z</time>
      </trkpt>
      <trkpt lat="45.96245" lon="6.53889">
        <ele>1925</ele>
        <time>2023-05-03T08:33:55Z</time>
      </trkpt>
      <trkpt lat="45.96246" lon="6.53894">
        <ele>1925</ele>
        <time>2023-05-03T08:33:59Z</time>
      </trkpt>
      <trkpt lat="45.96239" lon="6.53906">
        <ele>1925</ele>
        <time>2023-05-03T08:34:08Z</time>
      </trkpt>
      <trkpt lat="45.96236" lon="6.53913">
        <ele>1925</ele>
        <time>2023-05-03T08:34:13Z</time>
      </trkpt>
      <trkpt lat="45.96234" lon="6.5392">
        <ele>1925</ele>
        <time>2023-05-03T08:34:21Z</time>
      </trkpt>
      <trkpt lat="45.96235" lon="6.53928">
        <ele>1926</ele>
        <time>2023-05-03T08:34:29Z</time>
      </trkpt>
      <trkpt lat="45.96237" lon="6.53936">
        <ele>1925</ele>
        <time>2023-05-03T08:34:35Z</time>
      </trkpt>
      <trkpt lat="45.96237" lon="6.53944">
        <ele>1925</ele>
        <time>2023-05-03T08:34:41Z</time>
      </trkpt>
      <trkpt lat="45.96234" lon="6.53951">
        <ele>1925</ele>
        <time>2023-05-03T08:34:48Z</time>
      </trkpt>
      <trkpt lat="45.96233" lon="6.5396">
        <ele>1925</ele>
        <time>2023-05-03T08:34:55Z</time>
      </trkpt>
      <trkpt lat="45.96228" lon="6.53965">
        <ele>1925</ele>
        <time>2023-05-03T08:35:04Z</time>
      </trkpt>
      <trkpt lat="45.96223" lon="6.53968">
        <ele>1925</ele>
        <time>2023-05-03T08:35:16Z</time>
      </trkpt>
      <trkpt lat="45.96216" lon="6.53968">
        <ele>1926</ele>
        <time>2023-05-03T08:35:32Z</time>
      </trkpt>
      <trkpt lat="45.96211" lon="6.53972">
        <ele>1926</ele>
        <time>2023-05-03T08:35:43Z</time>
      </trkpt>
      <trkpt lat="45.96198" lon="6.53965">
        <ele>1926</ele>
        <time>2023-05-03T08:36:21Z</time>
      </trkpt>
      <trkpt lat="45.96193" lon="6.53962">
        <ele>1927</ele>
        <time>2023-05-03T08:36:48Z</time>
      </trkpt>
      <trkpt lat="45.96187" lon="6.53963">
        <ele>1928</ele>
        <time>2023-05-03T08:36:54Z</time>
      </trkpt>
      <trkpt lat="45.96182" lon="6.53959">
        <ele>1929</ele>
        <time>2023-05-03T08:37:11Z</time>
      </trkpt>
      <trkpt lat="45.96179" lon="6.5396">
        <ele>1931</ele>
        <time>2023-05-03T08:37:55Z</time>
      </trkpt>
      <trkpt lat="45.9618" lon="6.53969">
        <ele>1931</ele>
        <time>2023-05-03T08:38:58Z</time>
      </trkpt>
      <trkpt lat="45.96183" lon="6.53975">
        <ele>1932</ele>
        <time>2023-05-03T08:39:04Z</time>
      </trkpt>
      <trkpt lat="45.96193" lon="6.53995">
        <ele>1932</ele>
        <time>2023-05-03T08:39:35Z</time>
      </trkpt>
      <trkpt lat="45.96197" lon="6.54002">
        <ele>1932</ele>
        <time>2023-05-03T08:39:48Z</time>
      </trkpt>
      <trkpt lat="45.96198" lon="6.5401">
        <ele>1933</ele>
        <time>2023-05-03T08:40:15Z</time>
      </trkpt>
      <trkpt lat="45.96202" lon="6.54015">
        <ele>1933</ele>
        <time>2023-05-03T08:40:48Z</time>
      </trkpt>
      <trkpt lat="45.96205" lon="6.54018">
        <ele>1934</ele>
        <time>2023-05-03T08:41:20Z</time>
      </trkpt>
      <trkpt lat="45.96208" lon="6.54017">
        <ele>1942</ele>
        <time>2023-05-03T08:46:01Z</time>
      </trkpt>
      <trkpt lat="45.96213" lon="6.54019">
        <ele>1942</ele>
        <time>2023-05-03T08:46:21Z</time>
      </trkpt>
      <trkpt lat="45.96218" lon="6.54024">
        <ele>1943</ele>
        <time>2023-05-03T08:46:28Z</time>
      </trkpt>
      <trkpt lat="45.96222" lon="6.54031">
        <ele>1943</ele>
        <time>2023-05-03T08:46:44Z</time>
      </trkpt>
      <trkpt lat="45.96227" lon="6.54035">
        <ele>1943</ele>
        <time>2023-05-03T08:46:59Z</time>
      </trkpt>
      <trkpt lat="45.96229" lon="6.54043">
        <ele>1943</ele>
        <time>2023-05-03T08:47:14Z</time>
      </trkpt>
      <trkpt lat="45.96229" lon="6.54054">
        <ele>1944</ele>
        <time>2023-05-03T08:47:36Z</time>
      </trkpt>
      <trkpt lat="45.96233" lon="6.54065">
        <ele>1945</ele>
        <time>2023-05-03T08:47:57Z</time>
      </trkpt>
      <trkpt lat="45.96238" lon="6.54066">
        <ele>1947</ele>
        <time>2023-05-03T08:48:16Z</time>
      </trkpt>
      <trkpt lat="45.9624" lon="6.54076">
        <ele>1948</ele>
        <time>2023-05-03T08:48:34Z</time>
      </trkpt>
      <trkpt lat="45.96241" lon="6.54084">
        <ele>1952</ele>
        <time>2023-05-03T08:48:46Z</time>
      </trkpt>
      <trkpt lat="45.96245" lon="6.54091">
        <ele>1953</ele>
        <time>2023-05-03T08:48:57Z</time>
      </trkpt>
      <trkpt lat="45.96245" lon="6.54097">
        <ele>1955</ele>
        <time>2023-05-03T08:49:03Z</time>
      </trkpt>
      <trkpt lat="45.96243" lon="6.54101">
        <ele>1956</ele>
        <time>2023-05-03T08:49:11Z</time>
      </trkpt>
      <trkpt lat="45.96248" lon="6.54105">
        <ele>1957</ele>
        <time>2023-05-03T08:49:31Z</time>
      </trkpt>
      <trkpt lat="45.9625" lon="6.54113">
        <ele>1965</ele>
        <time>2023-05-03T08:50:10Z</time>
      </trkpt>
      <trkpt lat="45.96256" lon="6.54114">
        <ele>1968</ele>
        <time>2023-05-03T08:50:54Z</time>
      </trkpt>
      <trkpt lat="45.96255" lon="6.54119">
        <ele>1972</ele>
        <time>2023-05-03T08:53:46Z</time>
      </trkpt>
      <trkpt lat="45.96254" lon="6.54124">
        <ele>1972</ele>
        <time>2023-05-03T08:55:30Z</time>
      </trkpt>
      <trkpt lat="45.96253" lon="6.54131">
        <ele>1973</ele>
        <time>2023-05-03T08:55:38Z</time>
      </trkpt>
      <trkpt lat="45.96256" lon="6.54132">
        <ele>1975</ele>
        <time>2023-05-03T08:56:18Z</time>
      </trkpt>
      <trkpt lat="45.96258" lon="6.5414">
        <ele>1977</ele>
        <time>2023-05-03T08:57:20Z</time>
      </trkpt>
      <trkpt lat="45.96252" lon="6.54147">
        <ele>1978</ele>
        <time>2023-05-03T08:57:56Z</time>
      </trkpt>
      <trkpt lat="45.96249" lon="6.54156">
        <ele>1981</ele>
        <time>2023-05-03T08:58:11Z</time>
      </trkpt>
      <trkpt lat="45.96244" lon="6.54164">
        <ele>1982</ele>
        <time>2023-05-03T08:58:35Z</time>
      </trkpt>
      <trkpt lat="45.9624" lon="6.54169">
        <ele>1984</ele>
        <time>2023-05-03T08:58:46Z</time>
      </trkpt>
      <trkpt lat="45.96237" lon="6.54177">
        <ele>1985</ele>
        <time>2023-05-03T08:59:04Z</time>
      </trkpt>
      <trkpt lat="45.96232" lon="6.54183">
        <ele>1987</ele>
        <time>2023-05-03T08:59:23Z</time>
      </trkpt>
      <trkpt lat="45.96225" lon="6.54187">
        <ele>1989</ele>
        <time>2023-05-03T08:59:53Z</time>
      </trkpt>
      <trkpt lat="45.96219" lon="6.54194">
        <ele>1991</ele>
        <time>2023-05-03T09:00:10Z</time>
      </trkpt>
      <trkpt lat="45.96212" lon="6.54191">
        <ele>1992</ele>
        <time>2023-05-03T09:00:33Z</time>
      </trkpt>
      <trkpt lat="45.96207" lon="6.54184">
        <ele>1995</ele>
        <time>2023-05-03T09:00:49Z</time>
      </trkpt>
      <trkpt lat="45.962" lon="6.54181">
        <ele>1996</ele>
        <time>2023-05-03T09:01:01Z</time>
      </trkpt>
      <trkpt lat="45.96193" lon="6.54178">
        <ele>1997</ele>
        <time>2023-05-03T09:01:37Z</time>
      </trkpt>
      <trkpt lat="45.96188" lon="6.54177">
        <ele>2000</ele>
        <time>2023-05-03T09:04:05Z</time>
      </trkpt>
      <trkpt lat="45.96182" lon="6.54178">
        <ele>2006</ele>
        <time>2023-05-03T09:05:23Z</time>
      </trkpt>
      <trkpt lat="45.96176" lon="6.54179">
        <ele>2007</ele>
        <time>2023-05-03T09:05:32Z</time>
      </trkpt>
      <trkpt lat="45.96169" lon="6.5418">
        <ele>2012</ele>
        <time>2023-05-03T09:05:49Z</time>
      </trkpt>
      <trkpt lat="45.96154" lon="6.54181">
        <ele>2016</ele>
        <time>2023-05-03T09:06:33Z</time>
      </trkpt>
      <trkpt lat="45.96142" lon="6.54179">
        <ele>2018</ele>
        <time>2023-05-03T09:06:59Z</time>
      </trkpt>
      <trkpt lat="45.9613" lon="6.54182">
        <ele>2019</ele>
        <time>2023-05-03T09:07:23Z</time>
      </trkpt>
      <trkpt lat="45.96122" lon="6.5418">
        <ele>2020</ele>
        <time>2023-05-03T09:07:50Z</time>
      </trkpt>
      <trkpt lat="45.96124" lon="6.54188">
        <ele>2021</ele>
        <time>2023-05-03T09:08:12Z</time>
      </trkpt>
      <trkpt lat="45.96126" lon="6.54198">
        <ele>2022</ele>
        <time>2023-05-03T09:08:39Z</time>
      </trkpt>
      <trkpt lat="45.96132" lon="6.54205">
        <ele>2022</ele>
        <time>2023-05-03T09:08:49Z</time>
      </trkpt>
      <trkpt lat="45.96134" lon="6.54216">
        <ele>2027</ele>
        <time>2023-05-03T09:09:07Z</time>
      </trkpt>
      <trkpt lat="45.96139" lon="6.54236">
        <ele>2030</ele>
        <time>2023-05-03T09:09:32Z</time>
      </trkpt>
      <trkpt lat="45.96137" lon="6.54248">
        <ele>2034</ele>
        <time>2023-05-03T09:09:56Z</time>
      </trkpt>
      <trkpt lat="45.96131" lon="6.54253">
        <ele>2036</ele>
        <time>2023-05-03T09:10:20Z</time>
      </trkpt>
      <trkpt lat="45.96124" lon="6.54256">
        <ele>2040</ele>
        <time>2023-05-03T09:10:39Z</time>
      </trkpt>
      <trkpt lat="45.96119" lon="6.54258">
        <ele>2040</ele>
        <time>2023-05-03T09:10:48Z</time>
      </trkpt>
      <trkpt lat="45.96101" lon="6.54269">
        <ele>2045</ele>
        <time>2023-05-03T09:11:28Z</time>
      </trkpt>
      <trkpt lat="45.96095" lon="6.54274">
        <ele>2047</ele>
        <time>2023-05-03T09:11:49Z</time>
      </trkpt>
      <trkpt lat="45.96088" lon="6.54276">
        <ele>2048</ele>
        <time>2023-05-03T09:12:08Z</time>
      </trkpt>
      <trkpt lat="45.96081" lon="6.54281">
        <ele>2050</ele>
        <time>2023-05-03T09:12:22Z</time>
      </trkpt>
      <trkpt lat="45.96076" lon="6.54285">
        <ele>2050</ele>
        <time>2023-05-03T09:12:35Z</time>
      </trkpt>
      <trkpt lat="45.96069" lon="6.54291">
        <ele>2052</ele>
        <time>2023-05-03T09:12:48Z</time>
      </trkpt>
      <trkpt lat="45.96063" lon="6.54297">
        <ele>2053</ele>
        <time>2023-05-03T09:13:04Z</time>
      </trkpt>
      <trkpt lat="45.96048" lon="6.54296">
        <ele>2058</ele>
        <time>2023-05-03T09:13:45Z</time>
      </trkpt>
      <trkpt lat="45.96042" lon="6.54297">
        <ele>2061</ele>
        <time>2023-05-03T09:13:58Z</time>
      </trkpt>
      <trkpt lat="45.9603" lon="6.54309">
        <ele>2064</ele>
        <time>2023-05-03T09:14:32Z</time>
      </trkpt>
      <trkpt lat="45.96023" lon="6.54311">
        <ele>2065</ele>
        <time>2023-05-03T09:14:49Z</time>
      </trkpt>
      <trkpt lat="45.96016" lon="6.54316">
        <ele>2068</ele>
        <time>2023-05-03T09:15:04Z</time>
      </trkpt>
      <trkpt lat="45.95999" lon="6.54325">
        <ele>2074</ele>
        <time>2023-05-03T09:15:47Z</time>
      </trkpt>
      <trkpt lat="45.95994" lon="6.54332">
        <ele>2077</ele>
        <time>2023-05-03T09:16:13Z</time>
      </trkpt>
      <trkpt lat="45.95992" lon="6.54342">
        <ele>2082</ele>
        <time>2023-05-03T09:16:44Z</time>
      </trkpt>
      <trkpt lat="45.95988" lon="6.54348">
        <ele>2085</ele>
        <time>2023-05-03T09:16:59Z</time>
      </trkpt>
      <trkpt lat="45.95984" lon="6.54355">
        <ele>2087</ele>
        <time>2023-05-03T09:17:10Z</time>
      </trkpt>
      <trkpt lat="45.95974" lon="6.54365">
        <ele>2092</ele>
        <time>2023-05-03T09:17:51Z</time>
      </trkpt>
      <trkpt lat="45.95972" lon="6.54375">
        <ele>2094</ele>
        <time>2023-05-03T09:18:15Z</time>
      </trkpt>
      <trkpt lat="45.95974" lon="6.54396">
        <ele>2099</ele>
        <time>2023-05-03T09:18:47Z</time>
      </trkpt>
      <trkpt lat="45.95978" lon="6.54405">
        <ele>2105</ele>
        <time>2023-05-03T09:19:13Z</time>
      </trkpt>
      <trkpt lat="45.95974" lon="6.54413">
        <ele>2105</ele>
        <time>2023-05-03T09:19:19Z</time>
      </trkpt>
      <trkpt lat="45.95974" lon="6.5443">
        <ele>2110</ele>
        <time>2023-05-03T09:19:42Z</time>
      </trkpt>
      <trkpt lat="45.95977" lon="6.54436">
        <ele>2113</ele>
        <time>2023-05-03T09:19:58Z</time>
      </trkpt>
      <trkpt lat="45.9598" lon="6.54443">
        <ele>2114</ele>
        <time>2023-05-03T09:20:08Z</time>
      </trkpt>
      <trkpt lat="45.95984" lon="6.54448">
        <ele>2116</ele>
        <time>2023-05-03T09:20:23Z</time>
      </trkpt>
      <trkpt lat="45.95988" lon="6.54454">
        <ele>2117</ele>
        <time>2023-05-03T09:20:40Z</time>
      </trkpt>
      <trkpt lat="45.95991" lon="6.54462">
        <ele>2119</ele>
        <time>2023-05-03T09:20:59Z</time>
      </trkpt>
      <trkpt lat="45.9599" lon="6.5447">
        <ele>2121</ele>
        <time>2023-05-03T09:21:23Z</time>
      </trkpt>
      <trkpt lat="45.95985" lon="6.54478">
        <ele>2126</ele>
        <time>2023-05-03T09:21:48Z</time>
      </trkpt>
      <trkpt lat="45.95983" lon="6.54487">
        <ele>2127</ele>
        <time>2023-05-03T09:22:04Z</time>
      </trkpt>
      <trkpt lat="45.95976" lon="6.54492">
        <ele>2131</ele>
        <time>2023-05-03T09:22:27Z</time>
      </trkpt>
      <trkpt lat="45.9597" lon="6.54491">
        <ele>2132</ele>
        <time>2023-05-03T09:22:35Z</time>
      </trkpt>
      <trkpt lat="45.95965" lon="6.54495">
        <ele>2134</ele>
        <time>2023-05-03T09:22:46Z</time>
      </trkpt>
      <trkpt lat="45.95961" lon="6.54499">
        <ele>2136</ele>
        <time>2023-05-03T09:22:56Z</time>
      </trkpt>
      <trkpt lat="45.95955" lon="6.545">
        <ele>2137</ele>
        <time>2023-05-03T09:23:06Z</time>
      </trkpt>
      <trkpt lat="45.95949" lon="6.54503">
        <ele>2139</ele>
        <time>2023-05-03T09:23:15Z</time>
      </trkpt>
      <trkpt lat="45.95938" lon="6.54508">
        <ele>2141</ele>
        <time>2023-05-03T09:23:53Z</time>
      </trkpt>
      <trkpt lat="45.95934" lon="6.54514">
        <ele>2142</ele>
        <time>2023-05-03T09:24:06Z</time>
      </trkpt>
      <trkpt lat="45.95925" lon="6.54535">
        <ele>2144</ele>
        <time>2023-05-03T09:24:42Z</time>
      </trkpt>
      <trkpt lat="45.9592" lon="6.5454">
        <ele>2144</ele>
        <time>2023-05-03T09:24:54Z</time>
      </trkpt>
      <trkpt lat="45.95916" lon="6.54546">
        <ele>2145</ele>
        <time>2023-05-03T09:25:05Z</time>
      </trkpt>
      <trkpt lat="45.95912" lon="6.54553">
        <ele>2146</ele>
        <time>2023-05-03T09:25:18Z</time>
      </trkpt>
      <trkpt lat="45.95909" lon="6.5456">
        <ele>2147</ele>
        <time>2023-05-03T09:25:29Z</time>
      </trkpt>
      <trkpt lat="45.95905" lon="6.54566">
        <ele>2147</ele>
        <time>2023-05-03T09:25:39Z</time>
      </trkpt>
      <trkpt lat="45.95901" lon="6.54574">
        <ele>2149</ele>
        <time>2023-05-03T09:25:58Z</time>
      </trkpt>
      <trkpt lat="45.959" lon="6.54586">
        <ele>2150</ele>
        <time>2023-05-03T09:26:13Z</time>
      </trkpt>
      <trkpt lat="45.95901" lon="6.54592">
        <ele>2155</ele>
        <time>2023-05-03T09:28:43Z</time>
      </trkpt>
      <trkpt lat="45.95903" lon="6.54601">
        <ele>2178</ele>
        <time>2023-05-03T09:40:47Z</time>
      </trkpt>
      <trkpt lat="45.95905" lon="6.54606">
        <ele>2180</ele>
        <time>2023-05-03T09:40:54Z</time>
      </trkpt>
      <trkpt lat="45.95907" lon="6.54611">
        <ele>2180</ele>
        <time>2023-05-03T09:41:00Z</time>
      </trkpt>
      <trkpt lat="45.95907" lon="6.54617">
        <ele>2181</ele>
        <time>2023-05-03T09:41:06Z</time>
      </trkpt>
      <trkpt lat="45.95908" lon="6.54621">
        <ele>2181</ele>
        <time>2023-05-03T09:41:10Z</time>
      </trkpt>
      <trkpt lat="45.95904" lon="6.54623">
        <ele>2181</ele>
        <time>2023-05-03T09:41:17Z</time>
      </trkpt>
      <trkpt lat="45.95895" lon="6.54624">
        <ele>2183</ele>
        <time>2023-05-03T09:41:33Z</time>
      </trkpt>
      <trkpt lat="45.95892" lon="6.54626">
        <ele>2183</ele>
        <time>2023-05-03T09:41:39Z</time>
      </trkpt>
      <trkpt lat="45.9589" lon="6.54628">
        <ele>2184</ele>
        <time>2023-05-03T09:41:44Z</time>
      </trkpt>
      <trkpt lat="45.95887" lon="6.5463">
        <ele>2185</ele>
        <time>2023-05-03T09:41:50Z</time>
      </trkpt>
      <trkpt lat="45.95884" lon="6.54632">
        <ele>2185</ele>
        <time>2023-05-03T09:41:56Z</time>
      </trkpt>
      <trkpt lat="45.95882" lon="6.54635">
        <ele>2186</ele>
        <time>2023-05-03T09:42:02Z</time>
      </trkpt>
      <trkpt lat="45.9588" lon="6.54637">
        <ele>2187</ele>
        <time>2023-05-03T09:42:09Z</time>
      </trkpt>
      <trkpt lat="45.95878" lon="6.54641">
        <ele>2187</ele>
        <time>2023-05-03T09:42:13Z</time>
      </trkpt>
      <trkpt lat="45.95876" lon="6.54644">
        <ele>2188</ele>
        <time>2023-05-03T09:42:19Z</time>
      </trkpt>
      <trkpt lat="45.95876" lon="6.54649">
        <ele>2189</ele>
        <time>2023-05-03T09:42:26Z</time>
      </trkpt>
      <trkpt lat="45.95878" lon="6.54653">
        <ele>2190</ele>
        <time>2023-05-03T09:42:32Z</time>
      </trkpt>
      <trkpt lat="45.95879" lon="6.54657">
        <ele>2191</ele>
        <time>2023-05-03T09:42:41Z</time>
      </trkpt>
      <trkpt lat="45.9588" lon="6.54661">
        <ele>2192</ele>
        <time>2023-05-03T09:42:48Z</time>
      </trkpt>
      <trkpt lat="45.95883" lon="6.54671">
        <ele>2194</ele>
        <time>2023-05-03T09:43:02Z</time>
      </trkpt>
      <trkpt lat="45.95885" lon="6.54677">
        <ele>2194</ele>
        <time>2023-05-03T09:43:08Z</time>
      </trkpt>
      <trkpt lat="45.9589" lon="6.54686">
        <ele>2197</ele>
        <time>2023-05-03T09:43:26Z</time>
      </trkpt>
      <trkpt lat="45.95893" lon="6.54689">
        <ele>2198</ele>
        <time>2023-05-03T09:43:32Z</time>
      </trkpt>
      <trkpt lat="45.95894" lon="6.54692">
        <ele>2199</ele>
        <time>2023-05-03T09:43:36Z</time>
      </trkpt>
      <trkpt lat="45.95896" lon="6.54696">
        <ele>2200</ele>
        <time>2023-05-03T09:43:42Z</time>
      </trkpt>
      <trkpt lat="45.95901" lon="6.54706">
        <ele>2203</ele>
        <time>2023-05-03T09:44:00Z</time>
      </trkpt>
      <trkpt lat="45.95903" lon="6.5471">
        <ele>2204</ele>
        <time>2023-05-03T09:44:04Z</time>
      </trkpt>
      <trkpt lat="45.95906" lon="6.54713">
        <ele>2206</ele>
        <time>2023-05-03T09:44:15Z</time>
      </trkpt>
      <trkpt lat="45.95908" lon="6.54717">
        <ele>2206</ele>
        <time>2023-05-03T09:44:18Z</time>
      </trkpt>
      <trkpt lat="45.9591" lon="6.54721">
        <ele>2207</ele>
        <time>2023-05-03T09:44:26Z</time>
      </trkpt>
      <trkpt lat="45.95913" lon="6.54723">
        <ele>2208</ele>
        <time>2023-05-03T09:44:34Z</time>
      </trkpt>
      <trkpt lat="45.95914" lon="6.54728">
        <ele>2209</ele>
        <time>2023-05-03T09:44:38Z</time>
      </trkpt>
      <trkpt lat="45.95917" lon="6.5473">
        <ele>2210</ele>
        <time>2023-05-03T09:44:44Z</time>
      </trkpt>
      <trkpt lat="45.9592" lon="6.54732">
        <ele>2211</ele>
        <time>2023-05-03T09:44:51Z</time>
      </trkpt>
      <trkpt lat="45.95918" lon="6.54736">
        <ele>2211</ele>
        <time>2023-05-03T09:44:57Z</time>
      </trkpt>
      <trkpt lat="45.95915" lon="6.54737">
        <ele>2212</ele>
        <time>2023-05-03T09:45:00Z</time>
      </trkpt>
      <trkpt lat="45.95912" lon="6.54738">
        <ele>2212</ele>
        <time>2023-05-03T09:45:04Z</time>
      </trkpt>
      <trkpt lat="45.95909" lon="6.5474">
        <ele>2213</ele>
        <time>2023-05-03T09:45:08Z</time>
      </trkpt>
      <trkpt lat="45.95905" lon="6.54741">
        <ele>2213</ele>
        <time>2023-05-03T09:45:12Z</time>
      </trkpt>
      <trkpt lat="45.95902" lon="6.54742">
        <ele>2214</ele>
        <time>2023-05-03T09:45:17Z</time>
      </trkpt>
      <trkpt lat="45.95897" lon="6.54749">
        <ele>2214</ele>
        <time>2023-05-03T09:45:24Z</time>
      </trkpt>
      <trkpt lat="45.95894" lon="6.54759">
        <ele>2215</ele>
        <time>2023-05-03T09:45:33Z</time>
      </trkpt>
      <trkpt lat="45.95893" lon="6.54763">
        <ele>2216</ele>
        <time>2023-05-03T09:45:36Z</time>
      </trkpt>
      <trkpt lat="45.9589" lon="6.54767">
        <ele>2216</ele>
        <time>2023-05-03T09:45:40Z</time>
      </trkpt>
      <trkpt lat="45.95889" lon="6.5477">
        <ele>2217</ele>
        <time>2023-05-03T09:45:42Z</time>
      </trkpt>
      <trkpt lat="45.95887" lon="6.54775">
        <ele>2217</ele>
        <time>2023-05-03T09:45:44Z</time>
      </trkpt>
      <trkpt lat="45.95888" lon="6.54781">
        <ele>2217</ele>
        <time>2023-05-03T09:45:49Z</time>
      </trkpt>
      <trkpt lat="45.95891" lon="6.54783">
        <ele>2218</ele>
        <time>2023-05-03T09:45:54Z</time>
      </trkpt>
      <trkpt lat="45.95893" lon="6.54788">
        <ele>2218</ele>
        <time>2023-05-03T09:46:01Z</time>
      </trkpt>
      <trkpt lat="45.95896" lon="6.54791">
        <ele>2219</ele>
        <time>2023-05-03T09:46:08Z</time>
      </trkpt>
      <trkpt lat="45.95899" lon="6.54792">
        <ele>2220</ele>
        <time>2023-05-03T09:46:12Z</time>
      </trkpt>
      <trkpt lat="45.95902" lon="6.54796">
        <ele>2221</ele>
        <time>2023-05-03T09:46:20Z</time>
      </trkpt>
      <trkpt lat="45.95916" lon="6.54803">
        <ele>2224</ele>
        <time>2023-05-03T09:46:48Z</time>
      </trkpt>
      <trkpt lat="45.95922" lon="6.54807">
        <ele>2225</ele>
        <time>2023-05-03T09:46:57Z</time>
      </trkpt>
      <trkpt lat="45.95925" lon="6.54811">
        <ele>2225</ele>
        <time>2023-05-03T09:47:03Z</time>
      </trkpt>
      <trkpt lat="45.95926" lon="6.54816">
        <ele>2226</ele>
        <time>2023-05-03T09:47:08Z</time>
      </trkpt>
      <trkpt lat="45.95927" lon="6.5482">
        <ele>2227</ele>
        <time>2023-05-03T09:47:16Z</time>
      </trkpt>
      <trkpt lat="45.95931" lon="6.54827">
        <ele>2228</ele>
        <time>2023-05-03T09:47:27Z</time>
      </trkpt>
      <trkpt lat="45.95934" lon="6.5483">
        <ele>2229</ele>
        <time>2023-05-03T09:47:33Z</time>
      </trkpt>
      <trkpt lat="45.95939" lon="6.54837">
        <ele>2230</ele>
        <time>2023-05-03T09:47:44Z</time>
      </trkpt>
      <trkpt lat="45.9594" lon="6.5484">
        <ele>2231</ele>
        <time>2023-05-03T09:47:48Z</time>
      </trkpt>
      <trkpt lat="45.95942" lon="6.54854">
        <ele>2232</ele>
        <time>2023-05-03T09:48:02Z</time>
      </trkpt>
      <trkpt lat="45.95944" lon="6.54864">
        <ele>2233</ele>
        <time>2023-05-03T09:48:11Z</time>
      </trkpt>
      <trkpt lat="45.95945" lon="6.54869">
        <ele>2233</ele>
        <time>2023-05-03T09:48:18Z</time>
      </trkpt>
      <trkpt lat="45.95948" lon="6.54874">
        <ele>2234</ele>
        <time>2023-05-03T09:48:24Z</time>
      </trkpt>
      <trkpt lat="45.95953" lon="6.54883">
        <ele>2235</ele>
        <time>2023-05-03T09:48:34Z</time>
      </trkpt>
      <trkpt lat="45.95954" lon="6.54887">
        <ele>2236</ele>
        <time>2023-05-03T09:48:39Z</time>
      </trkpt>
      <trkpt lat="45.95957" lon="6.54895">
        <ele>2237</ele>
        <time>2023-05-03T09:48:51Z</time>
      </trkpt>
      <trkpt lat="45.95961" lon="6.54897">
        <ele>2238</ele>
        <time>2023-05-03T09:48:56Z</time>
      </trkpt>
      <trkpt lat="45.95971" lon="6.54909">
        <ele>2240</ele>
        <time>2023-05-03T09:49:16Z</time>
      </trkpt>
      <trkpt lat="45.95973" lon="6.54913">
        <ele>2241</ele>
        <time>2023-05-03T09:49:19Z</time>
      </trkpt>
      <trkpt lat="45.95973" lon="6.54918">
        <ele>2241</ele>
        <time>2023-05-03T09:49:23Z</time>
      </trkpt>
      <trkpt lat="45.95974" lon="6.54922">
        <ele>2242</ele>
        <time>2023-05-03T09:49:31Z</time>
      </trkpt>
      <trkpt lat="45.95976" lon="6.54927">
        <ele>2243</ele>
        <time>2023-05-03T09:49:41Z</time>
      </trkpt>
      <trkpt lat="45.95976" lon="6.54932">
        <ele>2244</ele>
        <time>2023-05-03T09:49:47Z</time>
      </trkpt>
      <trkpt lat="45.95975" lon="6.54936">
        <ele>2244</ele>
        <time>2023-05-03T09:49:52Z</time>
      </trkpt>
      <trkpt lat="45.95974" lon="6.54941">
        <ele>2244</ele>
        <time>2023-05-03T09:50:00Z</time>
      </trkpt>
      <trkpt lat="45.95977" lon="6.54951">
        <ele>2245</ele>
        <time>2023-05-03T09:50:15Z</time>
      </trkpt>
      <trkpt lat="45.95978" lon="6.54955">
        <ele>2245</ele>
        <time>2023-05-03T09:50:21Z</time>
      </trkpt>
      <trkpt lat="45.9598" lon="6.54958">
        <ele>2246</ele>
        <time>2023-05-03T09:50:25Z</time>
      </trkpt>
      <trkpt lat="45.95982" lon="6.54962">
        <ele>2246</ele>
        <time>2023-05-03T09:50:30Z</time>
      </trkpt>
      <trkpt lat="45.95987" lon="6.54978">
        <ele>2246</ele>
        <time>2023-05-03T09:50:48Z</time>
      </trkpt>
      <trkpt lat="45.95989" lon="6.54983">
        <ele>2247</ele>
        <time>2023-05-03T09:50:53Z</time>
      </trkpt>
      <trkpt lat="45.95991" lon="6.54986">
        <ele>2247</ele>
        <time>2023-05-03T09:50:58Z</time>
      </trkpt>
      <trkpt lat="45.95994" lon="6.54994">
        <ele>2248</ele>
        <time>2023-05-03T09:51:09Z</time>
      </trkpt>
      <trkpt lat="45.95996" lon="6.55">
        <ele>2248</ele>
        <time>2023-05-03T09:51:17Z</time>
      </trkpt>
      <trkpt lat="45.95996" lon="6.55006">
        <ele>2249</ele>
        <time>2023-05-03T09:51:23Z</time>
      </trkpt>
      <trkpt lat="45.95998" lon="6.55011">
        <ele>2249</ele>
        <time>2023-05-03T09:51:33Z</time>
      </trkpt>
      <trkpt lat="45.96" lon="6.55019">
        <ele>2249</ele>
        <time>2023-05-03T09:51:46Z</time>
      </trkpt>
      <trkpt lat="45.96" lon="6.55033">
        <ele>2250</ele>
        <time>2023-05-03T09:52:03Z</time>
      </trkpt>
      <trkpt lat="45.96001" lon="6.5504">
        <ele>2250</ele>
        <time>2023-05-03T09:52:16Z</time>
      </trkpt>
      <trkpt lat="45.96002" lon="6.55049">
        <ele>2250</ele>
        <time>2023-05-03T09:52:27Z</time>
      </trkpt>
      <trkpt lat="45.96003" lon="6.55055">
        <ele>2251</ele>
        <time>2023-05-03T09:52:37Z</time>
      </trkpt>
      <trkpt lat="45.96004" lon="6.55063">
        <ele>2251</ele>
        <time>2023-05-03T09:52:50Z</time>
      </trkpt>
      <trkpt lat="45.96006" lon="6.55067">
        <ele>2251</ele>
        <time>2023-05-03T09:52:55Z</time>
      </trkpt>
      <trkpt lat="45.96012" lon="6.55067">
        <ele>2252</ele>
        <time>2023-05-03T09:53:16Z</time>
      </trkpt>
      <trkpt lat="45.96014" lon="6.55065">
        <ele>2254</ele>
        <time>2023-05-03T09:54:34Z</time>
      </trkpt>
      <trkpt lat="45.96015" lon="6.5507">
        <ele>2260</ele>
        <time>2023-05-03T10:03:26Z</time>
      </trkpt>
      <trkpt lat="45.96014" lon="6.55076">
        <ele>2263</ele>
        <time>2023-05-03T10:03:32Z</time>
      </trkpt>
      <trkpt lat="45.96016" lon="6.55084">
        <ele>2265</ele>
        <time>2023-05-03T10:03:49Z</time>
      </trkpt>
      <trkpt lat="45.96017" lon="6.55089">
        <ele>2265</ele>
        <time>2023-05-03T10:03:54Z</time>
      </trkpt>
      <trkpt lat="45.9602" lon="6.55093">
        <ele>2265</ele>
        <time>2023-05-03T10:03:59Z</time>
      </trkpt>
      <trkpt lat="45.96029" lon="6.551">
        <ele>2266</ele>
        <time>2023-05-03T10:04:21Z</time>
      </trkpt>
      <trkpt lat="45.96034" lon="6.55102">
        <ele>2267</ele>
        <time>2023-05-03T10:04:33Z</time>
      </trkpt>
      <trkpt lat="45.96037" lon="6.55108">
        <ele>2267</ele>
        <time>2023-05-03T10:04:40Z</time>
      </trkpt>
      <trkpt lat="45.96041" lon="6.55111">
        <ele>2268</ele>
        <time>2023-05-03T10:04:50Z</time>
      </trkpt>
      <trkpt lat="45.96043" lon="6.55114">
        <ele>2268</ele>
        <time>2023-05-03T10:05:01Z</time>
      </trkpt>
      <trkpt lat="45.96046" lon="6.55121">
        <ele>2269</ele>
        <time>2023-05-03T10:05:15Z</time>
      </trkpt>
      <trkpt lat="45.96049" lon="6.55125">
        <ele>2269</ele>
        <time>2023-05-03T10:05:22Z</time>
      </trkpt>
      <trkpt lat="45.96055" lon="6.55132">
        <ele>2270</ele>
        <time>2023-05-03T10:05:37Z</time>
      </trkpt>
      <trkpt lat="45.96058" lon="6.55138">
        <ele>2271</ele>
        <time>2023-05-03T10:05:46Z</time>
      </trkpt>
      <trkpt lat="45.96061" lon="6.55145">
        <ele>2271</ele>
        <time>2023-05-03T10:05:59Z</time>
      </trkpt>
      <trkpt lat="45.96064" lon="6.55152">
        <ele>2272</ele>
        <time>2023-05-03T10:06:11Z</time>
      </trkpt>
      <trkpt lat="45.96059" lon="6.5516">
        <ele>2274</ele>
        <time>2023-05-03T10:06:33Z</time>
      </trkpt>
      <trkpt lat="45.96047" lon="6.55164">
        <ele>2275</ele>
        <time>2023-05-03T10:06:50Z</time>
      </trkpt>
      <trkpt lat="45.96042" lon="6.55169">
        <ele>2276</ele>
        <time>2023-05-03T10:07:00Z</time>
      </trkpt>
      <trkpt lat="45.96037" lon="6.55171">
        <ele>2278</ele>
        <time>2023-05-03T10:07:07Z</time>
      </trkpt>
      <trkpt lat="45.9603" lon="6.55176">
        <ele>2278</ele>
        <time>2023-05-03T10:07:18Z</time>
      </trkpt>
      <trkpt lat="45.96027" lon="6.55183">
        <ele>2280</ele>
        <time>2023-05-03T10:07:24Z</time>
      </trkpt>
      <trkpt lat="45.96029" lon="6.55193">
        <ele>2281</ele>
        <time>2023-05-03T10:07:33Z</time>
      </trkpt>
      <trkpt lat="45.96031" lon="6.55198">
        <ele>2282</ele>
        <time>2023-05-03T10:07:39Z</time>
      </trkpt>
      <trkpt lat="45.96036" lon="6.55203">
        <ele>2283</ele>
        <time>2023-05-03T10:07:47Z</time>
      </trkpt>
      <trkpt lat="45.96036" lon="6.55209">
        <ele>2284</ele>
        <time>2023-05-03T10:07:54Z</time>
      </trkpt>
      <trkpt lat="45.96041" lon="6.55213">
        <ele>2284</ele>
        <time>2023-05-03T10:08:03Z</time>
      </trkpt>
      <trkpt lat="45.96043" lon="6.55218">
        <ele>2285</ele>
        <time>2023-05-03T10:08:08Z</time>
      </trkpt>
      <trkpt lat="45.96049" lon="6.55222">
        <ele>2286</ele>
        <time>2023-05-03T10:08:15Z</time>
      </trkpt>
      <trkpt lat="45.96054" lon="6.55227">
        <ele>2288</ele>
        <time>2023-05-03T10:08:22Z</time>
      </trkpt>
      <trkpt lat="45.96059" lon="6.55231">
        <ele>2288</ele>
        <time>2023-05-03T10:08:29Z</time>
      </trkpt>
      <trkpt lat="45.96066" lon="6.55241">
        <ele>2290</ele>
        <time>2023-05-03T10:08:42Z</time>
      </trkpt>
      <trkpt lat="45.96074" lon="6.55254">
        <ele>2291</ele>
        <time>2023-05-03T10:08:56Z</time>
      </trkpt>
      <trkpt lat="45.96079" lon="6.55258">
        <ele>2292</ele>
        <time>2023-05-03T10:09:04Z</time>
      </trkpt>
      <trkpt lat="45.96089" lon="6.5528">
        <ele>2293</ele>
        <time>2023-05-03T10:09:23Z</time>
      </trkpt>
      <trkpt lat="45.96092" lon="6.55291">
        <ele>2294</ele>
        <time>2023-05-03T10:09:27Z</time>
      </trkpt>
      <trkpt lat="45.96095" lon="6.55294">
        <ele>2294</ele>
        <time>2023-05-03T10:09:35Z</time>
      </trkpt>
      <trkpt lat="45.96095" lon="6.553">
        <ele>2294</ele>
        <time>2023-05-03T10:09:40Z</time>
      </trkpt>
      <trkpt lat="45.96096" lon="6.55306">
        <ele>2294</ele>
        <time>2023-05-03T10:09:46Z</time>
      </trkpt>
      <trkpt lat="45.96098" lon="6.55311">
        <ele>2294</ele>
        <time>2023-05-03T10:09:52Z</time>
      </trkpt>
      <trkpt lat="45.96104" lon="6.55326">
        <ele>2295</ele>
        <time>2023-05-03T10:10:22Z</time>
      </trkpt>
      <trkpt lat="45.96106" lon="6.55331">
        <ele>2296</ele>
        <time>2023-05-03T10:10:27Z</time>
      </trkpt>
      <trkpt lat="45.96108" lon="6.55335">
        <ele>2297</ele>
        <time>2023-05-03T10:10:37Z</time>
      </trkpt>
      <trkpt lat="45.96109" lon="6.55341">
        <ele>2298</ele>
        <time>2023-05-03T10:10:45Z</time>
      </trkpt>
      <trkpt lat="45.96113" lon="6.55347">
        <ele>2299</ele>
        <time>2023-05-03T10:10:53Z</time>
      </trkpt>
      <trkpt lat="45.96112" lon="6.55352">
        <ele>2300</ele>
        <time>2023-05-03T10:11:01Z</time>
      </trkpt>
      <trkpt lat="45.96118" lon="6.55369">
        <ele>2304</ele>
        <time>2023-05-03T10:11:29Z</time>
      </trkpt>
      <trkpt lat="45.96123" lon="6.55378">
        <ele>2307</ele>
        <time>2023-05-03T10:11:44Z</time>
      </trkpt>
      <trkpt lat="45.96125" lon="6.55383">
        <ele>2308</ele>
        <time>2023-05-03T10:11:54Z</time>
      </trkpt>
      <trkpt lat="45.96135" lon="6.55405">
        <ele>2314</ele>
        <time>2023-05-03T10:12:34Z</time>
      </trkpt>
      <trkpt lat="45.96137" lon="6.55416">
        <ele>2317</ele>
        <time>2023-05-03T10:12:54Z</time>
      </trkpt>
      <trkpt lat="45.96139" lon="6.55427">
        <ele>2321</ele>
        <time>2023-05-03T10:13:10Z</time>
      </trkpt>
      <trkpt lat="45.96142" lon="6.55435">
        <ele>2324</ele>
        <time>2023-05-03T10:13:26Z</time>
      </trkpt>
      <trkpt lat="45.96144" lon="6.55439">
        <ele>2325</ele>
        <time>2023-05-03T10:13:33Z</time>
      </trkpt>
      <trkpt lat="45.96146" lon="6.55443">
        <ele>2327</ele>
        <time>2023-05-03T10:13:44Z</time>
      </trkpt>
      <trkpt lat="45.9615" lon="6.55453">
        <ele>2329</ele>
        <time>2023-05-03T10:13:56Z</time>
      </trkpt>
      <trkpt lat="45.96154" lon="6.55461">
        <ele>2331</ele>
        <time>2023-05-03T10:14:11Z</time>
      </trkpt>
      <trkpt lat="45.96156" lon="6.55467">
        <ele>2332</ele>
        <time>2023-05-03T10:14:19Z</time>
      </trkpt>
      <trkpt lat="45.96157" lon="6.55472">
        <ele>2332</ele>
        <time>2023-05-03T10:14:30Z</time>
      </trkpt>
      <trkpt lat="45.9616" lon="6.55475">
        <ele>2333</ele>
        <time>2023-05-03T10:14:37Z</time>
      </trkpt>
      <trkpt lat="45.96163" lon="6.55485">
        <ele>2335</ele>
        <time>2023-05-03T10:14:53Z</time>
      </trkpt>
      <trkpt lat="45.96164" lon="6.55496">
        <ele>2336</ele>
        <time>2023-05-03T10:15:06Z</time>
      </trkpt>
      <trkpt lat="45.96165" lon="6.55502">
        <ele>2338</ele>
        <time>2023-05-03T10:15:13Z</time>
      </trkpt>
      <trkpt lat="45.96166" lon="6.55507">
        <ele>2338</ele>
        <time>2023-05-03T10:15:22Z</time>
      </trkpt>
      <trkpt lat="45.96167" lon="6.55512">
        <ele>2341</ele>
        <time>2023-05-03T10:15:38Z</time>
      </trkpt>
      <trkpt lat="45.96163" lon="6.55514">
        <ele>2342</ele>
        <time>2023-05-03T10:15:43Z</time>
      </trkpt>
      <trkpt lat="45.9616" lon="6.55516">
        <ele>2343</ele>
        <time>2023-05-03T10:15:51Z</time>
      </trkpt>
      <trkpt lat="45.96154" lon="6.55517">
        <ele>2344</ele>
        <time>2023-05-03T10:16:00Z</time>
      </trkpt>
      <trkpt lat="45.96143" lon="6.55521">
        <ele>2347</ele>
        <time>2023-05-03T10:16:27Z</time>
      </trkpt>
      <trkpt lat="45.96139" lon="6.55525">
        <ele>2348</ele>
        <time>2023-05-03T10:16:39Z</time>
      </trkpt>
      <trkpt lat="45.96134" lon="6.55528">
        <ele>2349</ele>
        <time>2023-05-03T10:16:48Z</time>
      </trkpt>
      <trkpt lat="45.96119" lon="6.55534">
        <ele>2351</ele>
        <time>2023-05-03T10:17:16Z</time>
      </trkpt>
      <trkpt lat="45.96116" lon="6.5554">
        <ele>2352</ele>
        <time>2023-05-03T10:17:25Z</time>
      </trkpt>
      <trkpt lat="45.96117" lon="6.55545">
        <ele>2354</ele>
        <time>2023-05-03T10:17:40Z</time>
      </trkpt>
      <trkpt lat="45.96117" lon="6.55551">
        <ele>2355</ele>
        <time>2023-05-03T10:17:48Z</time>
      </trkpt>
      <trkpt lat="45.9612" lon="6.55569">
        <ele>2359</ele>
        <time>2023-05-03T10:18:14Z</time>
      </trkpt>
      <trkpt lat="45.96122" lon="6.55574">
        <ele>2361</ele>
        <time>2023-05-03T10:18:21Z</time>
      </trkpt>
      <trkpt lat="45.96121" lon="6.55578">
        <ele>2361</ele>
        <time>2023-05-03T10:18:26Z</time>
      </trkpt>
      <trkpt lat="45.9612" lon="6.55582">
        <ele>2362</ele>
        <time>2023-05-03T10:18:30Z</time>
      </trkpt>
      <trkpt lat="45.96122" lon="6.55595">
        <ele>2365</ele>
        <time>2023-05-03T10:18:47Z</time>
      </trkpt>
      <trkpt lat="45.96122" lon="6.556">
        <ele>2367</ele>
        <time>2023-05-03T10:18:53Z</time>
      </trkpt>
      <trkpt lat="45.96122" lon="6.55608">
        <ele>2368</ele>
        <time>2023-05-03T10:19:01Z</time>
      </trkpt>
      <trkpt lat="45.96123" lon="6.55613">
        <ele>2369</ele>
        <time>2023-05-03T10:19:08Z</time>
      </trkpt>
      <trkpt lat="45.96123" lon="6.55617">
        <ele>2371</ele>
        <time>2023-05-03T10:19:13Z</time>
      </trkpt>
      <trkpt lat="45.96123" lon="6.5563">
        <ele>2373</ele>
        <time>2023-05-03T10:19:32Z</time>
      </trkpt>
      <trkpt lat="45.96124" lon="6.55635">
        <ele>2375</ele>
        <time>2023-05-03T10:19:35Z</time>
      </trkpt>
      <trkpt lat="45.96123" lon="6.55641">
        <ele>2375</ele>
        <time>2023-05-03T10:19:40Z</time>
      </trkpt>
      <trkpt lat="45.96124" lon="6.55647">
        <ele>2376</ele>
        <time>2023-05-03T10:19:46Z</time>
      </trkpt>
      <trkpt lat="45.96126" lon="6.55649">
        <ele>2377</ele>
        <time>2023-05-03T10:19:52Z</time>
      </trkpt>
      <trkpt lat="45.96128" lon="6.55658">
        <ele>2379</ele>
        <time>2023-05-03T10:20:10Z</time>
      </trkpt>
      <trkpt lat="45.96129" lon="6.55667">
        <ele>2381</ele>
        <time>2023-05-03T10:20:25Z</time>
      </trkpt>
      <trkpt lat="45.96129" lon="6.55672">
        <ele>2382</ele>
        <time>2023-05-03T10:20:36Z</time>
      </trkpt>
      <trkpt lat="45.96128" lon="6.5568">
        <ele>2383</ele>
        <time>2023-05-03T10:20:44Z</time>
      </trkpt>
      <trkpt lat="45.96128" lon="6.55684">
        <ele>2383</ele>
        <time>2023-05-03T10:20:49Z</time>
      </trkpt>
      <trkpt lat="45.96129" lon="6.55689">
        <ele>2384</ele>
        <time>2023-05-03T10:20:58Z</time>
      </trkpt>
      <trkpt lat="45.96131" lon="6.55699">
        <ele>2385</ele>
        <time>2023-05-03T10:21:07Z</time>
      </trkpt>
      <trkpt lat="45.9613" lon="6.55709">
        <ele>2387</ele>
        <time>2023-05-03T10:21:20Z</time>
      </trkpt>
      <trkpt lat="45.9613" lon="6.55714">
        <ele>2388</ele>
        <time>2023-05-03T10:21:43Z</time>
      </trkpt>
      <trkpt lat="45.96129" lon="6.55721">
        <ele>2388</ele>
        <time>2023-05-03T10:21:48Z</time>
      </trkpt>
      <trkpt lat="45.96127" lon="6.5573">
        <ele>2389</ele>
        <time>2023-05-03T10:21:59Z</time>
      </trkpt>
      <trkpt lat="45.96126" lon="6.55734">
        <ele>2389</ele>
        <time>2023-05-03T10:22:05Z</time>
      </trkpt>
      <trkpt lat="45.96127" lon="6.55742">
        <ele>2389</ele>
        <time>2023-05-03T10:22:14Z</time>
      </trkpt>
      <trkpt lat="45.96126" lon="6.55747">
        <ele>2390</ele>
        <time>2023-05-03T10:22:21Z</time>
      </trkpt>
      <trkpt lat="45.96129" lon="6.55759">
        <ele>2391</ele>
        <time>2023-05-03T10:22:36Z</time>
      </trkpt>
      <trkpt lat="45.96128" lon="6.55765">
        <ele>2391</ele>
        <time>2023-05-03T10:22:46Z</time>
      </trkpt>
      <trkpt lat="45.96122" lon="6.55767">
        <ele>2392</ele>
        <time>2023-05-03T10:23:05Z</time>
      </trkpt>
      <trkpt lat="45.96118" lon="6.55763">
        <ele>2395</ele>
        <time>2023-05-03T10:23:24Z</time>
      </trkpt>
      <trkpt lat="45.96114" lon="6.55757">
        <ele>2396</ele>
        <time>2023-05-03T10:23:37Z</time>
      </trkpt>
      <trkpt lat="45.96107" lon="6.55762">
        <ele>2398</ele>
        <time>2023-05-03T10:23:56Z</time>
      </trkpt>
      <trkpt lat="45.96102" lon="6.55767">
        <ele>2401</ele>
        <time>2023-05-03T10:24:07Z</time>
      </trkpt>
      <trkpt lat="45.96097" lon="6.55767">
        <ele>2403</ele>
        <time>2023-05-03T10:24:19Z</time>
      </trkpt>
      <trkpt lat="45.96099" lon="6.55773">
        <ele>2404</ele>
        <time>2023-05-03T10:24:30Z</time>
      </trkpt>
      <trkpt lat="45.96099" lon="6.55779">
        <ele>2406</ele>
        <time>2023-05-03T10:24:38Z</time>
      </trkpt>
      <trkpt lat="45.96099" lon="6.55784">
        <ele>2406</ele>
        <time>2023-05-03T10:24:44Z</time>
      </trkpt>
      <trkpt lat="45.96101" lon="6.55794">
        <ele>2408</ele>
        <time>2023-05-03T10:25:01Z</time>
      </trkpt>
      <trkpt lat="45.96103" lon="6.55799">
        <ele>2410</ele>
        <time>2023-05-03T10:25:07Z</time>
      </trkpt>
      <trkpt lat="45.96108" lon="6.55804">
        <ele>2412</ele>
        <time>2023-05-03T10:25:22Z</time>
      </trkpt>
      <trkpt lat="45.9611" lon="6.55807">
        <ele>2412</ele>
        <time>2023-05-03T10:25:29Z</time>
      </trkpt>
      <trkpt lat="45.96113" lon="6.55812">
        <ele>2414</ele>
        <time>2023-05-03T10:25:38Z</time>
      </trkpt>
      <trkpt lat="45.96114" lon="6.55816">
        <ele>2414</ele>
        <time>2023-05-03T10:25:46Z</time>
      </trkpt>
      <trkpt lat="45.96117" lon="6.55818">
        <ele>2415</ele>
        <time>2023-05-03T10:25:55Z</time>
      </trkpt>
      <trkpt lat="45.96117" lon="6.55829">
        <ele>2417</ele>
        <time>2023-05-03T10:26:13Z</time>
      </trkpt>
      <trkpt lat="45.9612" lon="6.55833">
        <ele>2418</ele>
        <time>2023-05-03T10:26:20Z</time>
      </trkpt>
      <trkpt lat="45.96124" lon="6.55836">
        <ele>2419</ele>
        <time>2023-05-03T10:26:31Z</time>
      </trkpt>
      <trkpt lat="45.9613" lon="6.55856">
        <ele>2424</ele>
        <time>2023-05-03T10:27:09Z</time>
      </trkpt>
      <trkpt lat="45.96133" lon="6.55861">
        <ele>2425</ele>
        <time>2023-05-03T10:27:16Z</time>
      </trkpt>
      <trkpt lat="45.96139" lon="6.55869">
        <ele>2428</ele>
        <time>2023-05-03T10:27:40Z</time>
      </trkpt>
      <trkpt lat="45.9614" lon="6.55874">
        <ele>2429</ele>
        <time>2023-05-03T10:27:57Z</time>
      </trkpt>
      <trkpt lat="45.96135" lon="6.55873">
        <ele>2431</ele>
        <time>2023-05-03T10:28:29Z</time>
      </trkpt>
      <trkpt lat="45.96131" lon="6.55877">
        <ele>2435</ele>
        <time>2023-05-03T10:28:46Z</time>
      </trkpt>
      <trkpt lat="45.96128" lon="6.55885">
        <ele>2441</ele>
        <time>2023-05-03T10:31:23Z</time>
      </trkpt>
      <trkpt lat="45.96128" lon="6.55881">
        <ele>2445</ele>
        <time>2023-05-03T10:37:36Z</time>
      </trkpt>
      <trkpt lat="45.96129" lon="6.55884">
        <ele>2461</ele>
        <time>2023-05-03T10:54:52Z</time>
      </trkpt>
      <trkpt lat="45.9613" lon="6.55888">
        <ele>2462</ele>
        <time>2023-05-03T10:58:39Z</time>
      </trkpt>
      <trkpt lat="45.96133" lon="6.5589">
        <ele>2462</ele>
        <time>2023-05-03T10:59:57Z</time>
      </trkpt>
      <trkpt lat="45.96136" lon="6.55892">
        <ele>2463</ele>
        <time>2023-05-03T11:00:15Z</time>
      </trkpt>
      <trkpt lat="45.96139" lon="6.55894">
        <ele>2468</ele>
        <time>2023-05-03T11:00:39Z</time>
      </trkpt>
      <trkpt lat="45.96139" lon="6.55898">
        <ele>2469</ele>
        <time>2023-05-03T11:00:56Z</time>
      </trkpt>
      <trkpt lat="45.96141" lon="6.55905">
        <ele>2471</ele>
        <time>2023-05-03T11:01:32Z</time>
      </trkpt>
      <trkpt lat="45.96144" lon="6.55904">
        <ele>2472</ele>
        <time>2023-05-03T11:03:25Z</time>
      </trkpt>
      <trkpt lat="45.96147" lon="6.55903">
        <ele>2473</ele>
        <time>2023-05-03T11:03:40Z</time>
      </trkpt>
      <trkpt lat="45.96148" lon="6.55899">
        <ele>2473</ele>
        <time>2023-05-03T11:03:52Z</time>
      </trkpt>
      <trkpt lat="45.9615" lon="6.55897">
        <ele>2473</ele>
        <time>2023-05-03T11:04:26Z</time>
      </trkpt>
      <trkpt lat="45.96147" lon="6.55895">
        <ele>2474</ele>
        <time>2023-05-03T11:05:48Z</time>
      </trkpt>
      <trkpt lat="45.96143" lon="6.55895">
        <ele>2474</ele>
        <time>2023-05-03T11:06:21Z</time>
      </trkpt>
      <trkpt lat="45.96144" lon="6.5589">
        <ele>2474</ele>
        <time>2023-05-03T11:08:10Z</time>
      </trkpt>
      <trkpt lat="45.96143" lon="6.55884">
        <ele>2474</ele>
        <time>2023-05-03T11:08:41Z</time>
      </trkpt>
      <trkpt lat="45.9614" lon="6.55879">
        <ele>2474</ele>
        <time>2023-05-03T11:09:01Z</time>
      </trkpt>
      <trkpt lat="45.96137" lon="6.55875">
        <ele>2474</ele>
        <time>2023-05-03T11:09:37Z</time>
      </trkpt>
      <trkpt lat="45.96133" lon="6.55876">
        <ele>2473</ele>
        <time>2023-05-03T11:10:08Z</time>
      </trkpt>
      <trkpt lat="45.9613" lon="6.55878">
        <ele>2472</ele>
        <time>2023-05-03T11:10:34Z</time>
      </trkpt>
      <trkpt lat="45.96128" lon="6.55878">
        <ele>2472</ele>
        <time>2023-05-03T11:12:52Z</time>
      </trkpt>
      <trkpt lat="45.96126" lon="6.55878">
        <ele>2473</ele>
        <time>2023-05-03T11:21:49Z</time>
      </trkpt>
      <trkpt lat="45.9613" lon="6.55873">
        <ele>2473</ele>
        <time>2023-05-03T11:21:54Z</time>
      </trkpt>
      <trkpt lat="45.96136" lon="6.55869">
        <ele>2472</ele>
        <time>2023-05-03T11:22:21Z</time>
      </trkpt>
      <trkpt lat="45.96141" lon="6.55869">
        <ele>2472</ele>
        <time>2023-05-03T11:22:23Z</time>
      </trkpt>
      <trkpt lat="45.96146" lon="6.55868">
        <ele>2472</ele>
        <time>2023-05-03T11:22:26Z</time>
      </trkpt>
    </trkseg>
  </trk>
</gpx>